<?xml version="1.0" encoding="UTF-8" standalone="no" ?>
<gpx xmlns="http://www.topografix.com/GPX/1/1" xmlns:xsi="http://www.w3.org/2001/XMLSchema-instance" xsi:schemaLocation="http://www.topografix.com/GPX/1/1 http://www.topografix.com/GPX/1/1/gpx.xsd" version="1.1" creator="VisuGPX - https://www.visugpx.com">
  <metadata>
    <name>2017-10-26 17:15:03</name>
  </metadata>
  <trk>
    <name><![CDATA[2017-10-26 17:15:03]]></name>
    <trkseg>
      <trkpt lat="48.23574" lon="7.09657">
        <ele>607.21</ele>
        <time>2017-10-26T11:55:11Z</time>
      </trkpt>
      <trkpt lat="48.23581" lon="7.0966">
        <ele>605.77</ele>
        <time>2017-10-26T11:55:30Z</time>
      </trkpt>
      <trkpt lat="48.23589" lon="7.09652">
        <ele>607.21</ele>
        <time>2017-10-26T11:55:40Z</time>
      </trkpt>
      <trkpt lat="48.23595" lon="7.09641">
        <ele>608.65</ele>
        <time>2017-10-26T11:55:51Z</time>
      </trkpt>
      <trkpt lat="48.23599" lon="7.09628">
        <ele>609.13</ele>
        <time>2017-10-26T11:56:01Z</time>
      </trkpt>
      <trkpt lat="48.23604" lon="7.09615">
        <ele>609.61</ele>
        <time>2017-10-26T11:56:12Z</time>
      </trkpt>
      <trkpt lat="48.23609" lon="7.096">
        <ele>610.09</ele>
        <time>2017-10-26T11:56:23Z</time>
      </trkpt>
      <trkpt lat="48.23613" lon="7.09586">
        <ele>610.57</ele>
        <time>2017-10-26T11:56:32Z</time>
      </trkpt>
      <trkpt lat="48.23618" lon="7.09572">
        <ele>610.57</ele>
        <time>2017-10-26T11:56:42Z</time>
      </trkpt>
      <trkpt lat="48.23623" lon="7.09559">
        <ele>610.57</ele>
        <time>2017-10-26T11:56:50Z</time>
      </trkpt>
      <trkpt lat="48.23633" lon="7.09547">
        <ele>611.06</ele>
        <time>2017-10-26T11:57:00Z</time>
      </trkpt>
      <trkpt lat="48.23639" lon="7.09536">
        <ele>611.54</ele>
        <time>2017-10-26T11:57:09Z</time>
      </trkpt>
      <trkpt lat="48.23646" lon="7.09525">
        <ele>611.54</ele>
        <time>2017-10-26T11:57:17Z</time>
      </trkpt>
      <trkpt lat="48.23654" lon="7.09516">
        <ele>612.02</ele>
        <time>2017-10-26T11:57:27Z</time>
      </trkpt>
      <trkpt lat="48.23662" lon="7.09506">
        <ele>612.02</ele>
        <time>2017-10-26T11:57:36Z</time>
      </trkpt>
      <trkpt lat="48.23671" lon="7.09499">
        <ele>612.02</ele>
        <time>2017-10-26T11:57:47Z</time>
      </trkpt>
      <trkpt lat="48.23681" lon="7.09499">
        <ele>612.5</ele>
        <time>2017-10-26T11:57:55Z</time>
      </trkpt>
      <trkpt lat="48.23697" lon="7.09501">
        <ele>612.98</ele>
        <time>2017-10-26T11:58:03Z</time>
      </trkpt>
      <trkpt lat="48.23708" lon="7.095">
        <ele>612.98</ele>
        <time>2017-10-26T11:58:11Z</time>
      </trkpt>
      <trkpt lat="48.23719" lon="7.09499">
        <ele>612.98</ele>
        <time>2017-10-26T11:58:20Z</time>
      </trkpt>
      <trkpt lat="48.23729" lon="7.09496">
        <ele>612.98</ele>
        <time>2017-10-26T11:58:29Z</time>
      </trkpt>
      <trkpt lat="48.23737" lon="7.09494">
        <ele>613.46</ele>
        <time>2017-10-26T11:58:38Z</time>
      </trkpt>
      <trkpt lat="48.23747" lon="7.09497">
        <ele>613.94</ele>
        <time>2017-10-26T11:58:47Z</time>
      </trkpt>
      <trkpt lat="48.23754" lon="7.095">
        <ele>613.94</ele>
        <time>2017-10-26T11:58:56Z</time>
      </trkpt>
      <trkpt lat="48.23761" lon="7.09508">
        <ele>613.46</ele>
        <time>2017-10-26T11:59:05Z</time>
      </trkpt>
      <trkpt lat="48.23769" lon="7.09521">
        <ele>613.46</ele>
        <time>2017-10-26T11:59:14Z</time>
      </trkpt>
      <trkpt lat="48.23774" lon="7.09534">
        <ele>613.46</ele>
        <time>2017-10-26T11:59:23Z</time>
      </trkpt>
      <trkpt lat="48.23781" lon="7.09545">
        <ele>613.46</ele>
        <time>2017-10-26T11:59:33Z</time>
      </trkpt>
      <trkpt lat="48.23788" lon="7.09556">
        <ele>613.46</ele>
        <time>2017-10-26T11:59:41Z</time>
      </trkpt>
      <trkpt lat="48.23793" lon="7.09571">
        <ele>613.46</ele>
        <time>2017-10-26T11:59:50Z</time>
      </trkpt>
      <trkpt lat="48.23797" lon="7.09585">
        <ele>613.46</ele>
        <time>2017-10-26T11:59:59Z</time>
      </trkpt>
      <trkpt lat="48.238" lon="7.09599">
        <ele>612.98</ele>
        <time>2017-10-26T12:00:07Z</time>
      </trkpt>
      <trkpt lat="48.23803" lon="7.09614">
        <ele>612.98</ele>
        <time>2017-10-26T12:00:16Z</time>
      </trkpt>
      <trkpt lat="48.23805" lon="7.09629">
        <ele>612.5</ele>
        <time>2017-10-26T12:00:25Z</time>
      </trkpt>
      <trkpt lat="48.23809" lon="7.09642">
        <ele>612.02</ele>
        <time>2017-10-26T12:00:34Z</time>
      </trkpt>
      <trkpt lat="48.23809" lon="7.09655">
        <ele>611.54</ele>
        <time>2017-10-26T12:00:43Z</time>
      </trkpt>
      <trkpt lat="48.23811" lon="7.09669">
        <ele>611.54</ele>
        <time>2017-10-26T12:00:52Z</time>
      </trkpt>
      <trkpt lat="48.23815" lon="7.09684">
        <ele>611.54</ele>
        <time>2017-10-26T12:01:01Z</time>
      </trkpt>
      <trkpt lat="48.23819" lon="7.09698">
        <ele>611.54</ele>
        <time>2017-10-26T12:01:09Z</time>
      </trkpt>
      <trkpt lat="48.23821" lon="7.09711">
        <ele>611.54</ele>
        <time>2017-10-26T12:01:17Z</time>
      </trkpt>
      <trkpt lat="48.23824" lon="7.09725">
        <ele>612.02</ele>
        <time>2017-10-26T12:01:26Z</time>
      </trkpt>
      <trkpt lat="48.23827" lon="7.0974">
        <ele>612.5</ele>
        <time>2017-10-26T12:01:35Z</time>
      </trkpt>
      <trkpt lat="48.23831" lon="7.09753">
        <ele>612.5</ele>
        <time>2017-10-26T12:01:44Z</time>
      </trkpt>
      <trkpt lat="48.23833" lon="7.09767">
        <ele>612.98</ele>
        <time>2017-10-26T12:01:53Z</time>
      </trkpt>
      <trkpt lat="48.23836" lon="7.09781">
        <ele>613.94</ele>
        <time>2017-10-26T12:02:02Z</time>
      </trkpt>
      <trkpt lat="48.23838" lon="7.09793">
        <ele>614.42</ele>
        <time>2017-10-26T12:02:11Z</time>
      </trkpt>
      <trkpt lat="48.23841" lon="7.09805">
        <ele>614.9</ele>
        <time>2017-10-26T12:02:21Z</time>
      </trkpt>
      <trkpt lat="48.23844" lon="7.09819">
        <ele>615.86</ele>
        <time>2017-10-26T12:02:31Z</time>
      </trkpt>
      <trkpt lat="48.23845" lon="7.09833">
        <ele>616.82</ele>
        <time>2017-10-26T12:02:41Z</time>
      </trkpt>
      <trkpt lat="48.23847" lon="7.09848">
        <ele>617.3</ele>
        <time>2017-10-26T12:02:51Z</time>
      </trkpt>
      <trkpt lat="48.23848" lon="7.09863">
        <ele>617.3</ele>
        <time>2017-10-26T12:03:01Z</time>
      </trkpt>
      <trkpt lat="48.2385" lon="7.09877">
        <ele>617.3</ele>
        <time>2017-10-26T12:03:10Z</time>
      </trkpt>
      <trkpt lat="48.2385" lon="7.09891">
        <ele>617.78</ele>
        <time>2017-10-26T12:03:18Z</time>
      </trkpt>
      <trkpt lat="48.23851" lon="7.09906">
        <ele>617.78</ele>
        <time>2017-10-26T12:03:27Z</time>
      </trkpt>
      <trkpt lat="48.23855" lon="7.09919">
        <ele>617.78</ele>
        <time>2017-10-26T12:03:35Z</time>
      </trkpt>
      <trkpt lat="48.23857" lon="7.09932">
        <ele>618.26</ele>
        <time>2017-10-26T12:03:43Z</time>
      </trkpt>
      <trkpt lat="48.23859" lon="7.09943">
        <ele>618.75</ele>
        <time>2017-10-26T12:03:52Z</time>
      </trkpt>
      <trkpt lat="48.23859" lon="7.09957">
        <ele>619.23</ele>
        <time>2017-10-26T12:04:02Z</time>
      </trkpt>
      <trkpt lat="48.2386" lon="7.09974">
        <ele>619.23</ele>
        <time>2017-10-26T12:04:11Z</time>
      </trkpt>
      <trkpt lat="48.23861" lon="7.09987">
        <ele>620.19</ele>
        <time>2017-10-26T12:04:19Z</time>
      </trkpt>
      <trkpt lat="48.23861" lon="7.10002">
        <ele>620.67</ele>
        <time>2017-10-26T12:04:28Z</time>
      </trkpt>
      <trkpt lat="48.23863" lon="7.10016">
        <ele>621.15</ele>
        <time>2017-10-26T12:04:37Z</time>
      </trkpt>
      <trkpt lat="48.23863" lon="7.10029">
        <ele>622.11</ele>
        <time>2017-10-26T12:04:47Z</time>
      </trkpt>
      <trkpt lat="48.23865" lon="7.10041">
        <ele>623.07</ele>
        <time>2017-10-26T12:04:57Z</time>
      </trkpt>
      <trkpt lat="48.23866" lon="7.10057">
        <ele>623.55</ele>
        <time>2017-10-26T12:05:06Z</time>
      </trkpt>
      <trkpt lat="48.23866" lon="7.1007">
        <ele>624.03</ele>
        <time>2017-10-26T12:05:14Z</time>
      </trkpt>
      <trkpt lat="48.23867" lon="7.10083">
        <ele>624.99</ele>
        <time>2017-10-26T12:05:23Z</time>
      </trkpt>
      <trkpt lat="48.23866" lon="7.10096">
        <ele>625.96</ele>
        <time>2017-10-26T12:05:33Z</time>
      </trkpt>
      <trkpt lat="48.23865" lon="7.10109">
        <ele>626.92</ele>
        <time>2017-10-26T12:05:42Z</time>
      </trkpt>
      <trkpt lat="48.23862" lon="7.10122">
        <ele>627.4</ele>
        <time>2017-10-26T12:05:52Z</time>
      </trkpt>
      <trkpt lat="48.2386" lon="7.10136">
        <ele>628.36</ele>
        <time>2017-10-26T12:06:02Z</time>
      </trkpt>
      <trkpt lat="48.2386" lon="7.10151">
        <ele>628.84</ele>
        <time>2017-10-26T12:06:11Z</time>
      </trkpt>
      <trkpt lat="48.2386" lon="7.10165">
        <ele>629.8</ele>
        <time>2017-10-26T12:06:20Z</time>
      </trkpt>
      <trkpt lat="48.2386" lon="7.10179">
        <ele>630.28</ele>
        <time>2017-10-26T12:06:28Z</time>
      </trkpt>
      <trkpt lat="48.23859" lon="7.10192">
        <ele>630.76</ele>
        <time>2017-10-26T12:06:37Z</time>
      </trkpt>
      <trkpt lat="48.23857" lon="7.10206">
        <ele>631.72</ele>
        <time>2017-10-26T12:06:47Z</time>
      </trkpt>
      <trkpt lat="48.23856" lon="7.10223">
        <ele>632.2</ele>
        <time>2017-10-26T12:06:57Z</time>
      </trkpt>
      <trkpt lat="48.23854" lon="7.10237">
        <ele>633.17</ele>
        <time>2017-10-26T12:07:07Z</time>
      </trkpt>
      <trkpt lat="48.23854" lon="7.1025">
        <ele>633.65</ele>
        <time>2017-10-26T12:07:17Z</time>
      </trkpt>
      <trkpt lat="48.23851" lon="7.10265">
        <ele>634.13</ele>
        <time>2017-10-26T12:07:26Z</time>
      </trkpt>
      <trkpt lat="48.23849" lon="7.10279">
        <ele>634.61</ele>
        <time>2017-10-26T12:07:36Z</time>
      </trkpt>
      <trkpt lat="48.23847" lon="7.10291">
        <ele>635.09</ele>
        <time>2017-10-26T12:07:45Z</time>
      </trkpt>
      <trkpt lat="48.23845" lon="7.10305">
        <ele>635.57</ele>
        <time>2017-10-26T12:07:54Z</time>
      </trkpt>
      <trkpt lat="48.23844" lon="7.10319">
        <ele>636.05</ele>
        <time>2017-10-26T12:08:04Z</time>
      </trkpt>
      <trkpt lat="48.23842" lon="7.10334">
        <ele>636.53</ele>
        <time>2017-10-26T12:08:13Z</time>
      </trkpt>
      <trkpt lat="48.23841" lon="7.10348">
        <ele>636.53</ele>
        <time>2017-10-26T12:08:22Z</time>
      </trkpt>
      <trkpt lat="48.23839" lon="7.10363">
        <ele>637.01</ele>
        <time>2017-10-26T12:08:32Z</time>
      </trkpt>
      <trkpt lat="48.23836" lon="7.10378">
        <ele>637.49</ele>
        <time>2017-10-26T12:08:42Z</time>
      </trkpt>
      <trkpt lat="48.23835" lon="7.10392">
        <ele>638.45</ele>
        <time>2017-10-26T12:08:55Z</time>
      </trkpt>
      <trkpt lat="48.23835" lon="7.10393">
        <ele>637.97</ele>
        <time>2017-10-26T12:11:22Z</time>
      </trkpt>
      <trkpt lat="48.23826" lon="7.10396">
        <ele>639.89</ele>
        <time>2017-10-26T12:12:08Z</time>
      </trkpt>
      <trkpt lat="48.23821" lon="7.10405">
        <ele>641.82</ele>
        <time>2017-10-26T12:12:22Z</time>
      </trkpt>
      <trkpt lat="48.23815" lon="7.10416">
        <ele>644.7</ele>
        <time>2017-10-26T12:12:39Z</time>
      </trkpt>
      <trkpt lat="48.23812" lon="7.10432">
        <ele>647.1</ele>
        <time>2017-10-26T12:12:59Z</time>
      </trkpt>
      <trkpt lat="48.23805" lon="7.10447">
        <ele>648.55</ele>
        <time>2017-10-26T12:13:13Z</time>
      </trkpt>
      <trkpt lat="48.23802" lon="7.1046">
        <ele>649.99</ele>
        <time>2017-10-26T12:13:26Z</time>
      </trkpt>
      <trkpt lat="48.23798" lon="7.10477">
        <ele>650.95</ele>
        <time>2017-10-26T12:13:41Z</time>
      </trkpt>
      <trkpt lat="48.23792" lon="7.10486">
        <ele>652.39</ele>
        <time>2017-10-26T12:13:56Z</time>
      </trkpt>
      <trkpt lat="48.23789" lon="7.10505">
        <ele>653.83</ele>
        <time>2017-10-26T12:14:10Z</time>
      </trkpt>
      <trkpt lat="48.23785" lon="7.10517">
        <ele>654.8</ele>
        <time>2017-10-26T12:14:24Z</time>
      </trkpt>
      <trkpt lat="48.23776" lon="7.10532">
        <ele>657.2</ele>
        <time>2017-10-26T12:14:39Z</time>
      </trkpt>
      <trkpt lat="48.23769" lon="7.10541">
        <ele>658.64</ele>
        <time>2017-10-26T12:14:53Z</time>
      </trkpt>
      <trkpt lat="48.23763" lon="7.10555">
        <ele>660.08</ele>
        <time>2017-10-26T12:15:09Z</time>
      </trkpt>
      <trkpt lat="48.23756" lon="7.10567">
        <ele>661.52</ele>
        <time>2017-10-26T12:15:22Z</time>
      </trkpt>
      <trkpt lat="48.23749" lon="7.10574">
        <ele>665.37</ele>
        <time>2017-10-26T12:15:40Z</time>
      </trkpt>
      <trkpt lat="48.23742" lon="7.10582">
        <ele>667.29</ele>
        <time>2017-10-26T12:15:57Z</time>
      </trkpt>
      <trkpt lat="48.23731" lon="7.10588">
        <ele>670.18</ele>
        <time>2017-10-26T12:16:16Z</time>
      </trkpt>
      <trkpt lat="48.23724" lon="7.10595">
        <ele>672.1</ele>
        <time>2017-10-26T12:16:39Z</time>
      </trkpt>
      <trkpt lat="48.23718" lon="7.10605">
        <ele>674.98</ele>
        <time>2017-10-26T12:16:58Z</time>
      </trkpt>
      <trkpt lat="48.23711" lon="7.10617">
        <ele>677.39</ele>
        <time>2017-10-26T12:17:15Z</time>
      </trkpt>
      <trkpt lat="48.23697" lon="7.10627">
        <ele>680.27</ele>
        <time>2017-10-26T12:17:34Z</time>
      </trkpt>
      <trkpt lat="48.23688" lon="7.10631">
        <ele>682.19</ele>
        <time>2017-10-26T12:17:48Z</time>
      </trkpt>
      <trkpt lat="48.23678" lon="7.10638">
        <ele>685.56</ele>
        <time>2017-10-26T12:18:07Z</time>
      </trkpt>
      <trkpt lat="48.23666" lon="7.10648">
        <ele>688.44</ele>
        <time>2017-10-26T12:18:23Z</time>
      </trkpt>
      <trkpt lat="48.23658" lon="7.10647">
        <ele>689.88</ele>
        <time>2017-10-26T12:18:52Z</time>
      </trkpt>
      <trkpt lat="48.2365" lon="7.10653">
        <ele>692.29</ele>
        <time>2017-10-26T12:19:11Z</time>
      </trkpt>
      <trkpt lat="48.23638" lon="7.10663">
        <ele>694.21</ele>
        <time>2017-10-26T12:19:27Z</time>
      </trkpt>
      <trkpt lat="48.23628" lon="7.10668">
        <ele>696.61</ele>
        <time>2017-10-26T12:19:44Z</time>
      </trkpt>
      <trkpt lat="48.23616" lon="7.10674">
        <ele>698.53</ele>
        <time>2017-10-26T12:19:58Z</time>
      </trkpt>
      <trkpt lat="48.23605" lon="7.10682">
        <ele>701.42</ele>
        <time>2017-10-26T12:20:19Z</time>
      </trkpt>
      <trkpt lat="48.23592" lon="7.10689">
        <ele>703.34</ele>
        <time>2017-10-26T12:20:33Z</time>
      </trkpt>
      <trkpt lat="48.2358" lon="7.10691">
        <ele>704.78</ele>
        <time>2017-10-26T12:21:50Z</time>
      </trkpt>
      <trkpt lat="48.23575" lon="7.10699">
        <ele>706.23</ele>
        <time>2017-10-26T12:22:08Z</time>
      </trkpt>
      <trkpt lat="48.23565" lon="7.10704">
        <ele>708.15</ele>
        <time>2017-10-26T12:22:58Z</time>
      </trkpt>
      <trkpt lat="48.23556" lon="7.10707">
        <ele>711.03</ele>
        <time>2017-10-26T12:23:46Z</time>
      </trkpt>
      <trkpt lat="48.23548" lon="7.10718">
        <ele>712.95</ele>
        <time>2017-10-26T12:24:05Z</time>
      </trkpt>
      <trkpt lat="48.23541" lon="7.10726">
        <ele>714.88</ele>
        <time>2017-10-26T12:25:30Z</time>
      </trkpt>
      <trkpt lat="48.23534" lon="7.10735">
        <ele>716.8</ele>
        <time>2017-10-26T12:25:43Z</time>
      </trkpt>
      <trkpt lat="48.23526" lon="7.10746">
        <ele>718.72</ele>
        <time>2017-10-26T12:26:06Z</time>
      </trkpt>
      <trkpt lat="48.23517" lon="7.10756">
        <ele>720.65</ele>
        <time>2017-10-26T12:26:25Z</time>
      </trkpt>
      <trkpt lat="48.23507" lon="7.10764">
        <ele>722.57</ele>
        <time>2017-10-26T12:26:47Z</time>
      </trkpt>
      <trkpt lat="48.23498" lon="7.1077">
        <ele>724.49</ele>
        <time>2017-10-26T12:27:03Z</time>
      </trkpt>
      <trkpt lat="48.23486" lon="7.10779">
        <ele>726.41</ele>
        <time>2017-10-26T12:27:21Z</time>
      </trkpt>
      <trkpt lat="48.23476" lon="7.10788">
        <ele>728.34</ele>
        <time>2017-10-26T12:27:36Z</time>
      </trkpt>
      <trkpt lat="48.23464" lon="7.10794">
        <ele>730.26</ele>
        <time>2017-10-26T12:27:50Z</time>
      </trkpt>
      <trkpt lat="48.23456" lon="7.10803">
        <ele>732.18</ele>
        <time>2017-10-26T12:28:06Z</time>
      </trkpt>
      <trkpt lat="48.23446" lon="7.10814">
        <ele>734.1</ele>
        <time>2017-10-26T12:28:20Z</time>
      </trkpt>
      <trkpt lat="48.23439" lon="7.10822">
        <ele>735.55</ele>
        <time>2017-10-26T12:28:36Z</time>
      </trkpt>
      <trkpt lat="48.2343" lon="7.1083">
        <ele>736.99</ele>
        <time>2017-10-26T12:28:52Z</time>
      </trkpt>
      <trkpt lat="48.23421" lon="7.10839">
        <ele>738.43</ele>
        <time>2017-10-26T12:29:06Z</time>
      </trkpt>
      <trkpt lat="48.23413" lon="7.10851">
        <ele>739.87</ele>
        <time>2017-10-26T12:29:21Z</time>
      </trkpt>
      <trkpt lat="48.23407" lon="7.10862">
        <ele>741.79</ele>
        <time>2017-10-26T12:29:36Z</time>
      </trkpt>
      <trkpt lat="48.23404" lon="7.10871">
        <ele>743.24</ele>
        <time>2017-10-26T12:30:16Z</time>
      </trkpt>
      <trkpt lat="48.23394" lon="7.10882">
        <ele>745.16</ele>
        <time>2017-10-26T12:30:31Z</time>
      </trkpt>
      <trkpt lat="48.23387" lon="7.10891">
        <ele>747.08</ele>
        <time>2017-10-26T12:30:45Z</time>
      </trkpt>
      <trkpt lat="48.2338" lon="7.10899">
        <ele>749.49</ele>
        <time>2017-10-26T12:31:00Z</time>
      </trkpt>
      <trkpt lat="48.23372" lon="7.10909">
        <ele>750.45</ele>
        <time>2017-10-26T12:31:13Z</time>
      </trkpt>
      <trkpt lat="48.23361" lon="7.10917">
        <ele>752.37</ele>
        <time>2017-10-26T12:31:29Z</time>
      </trkpt>
      <trkpt lat="48.23352" lon="7.10926">
        <ele>753.81</ele>
        <time>2017-10-26T12:31:44Z</time>
      </trkpt>
      <trkpt lat="48.23342" lon="7.10928">
        <ele>756.69</ele>
        <time>2017-10-26T12:32:45Z</time>
      </trkpt>
      <trkpt lat="48.2333" lon="7.10924">
        <ele>759.58</ele>
        <time>2017-10-26T12:33:07Z</time>
      </trkpt>
      <trkpt lat="48.23317" lon="7.10921">
        <ele>761.5</ele>
        <time>2017-10-26T12:33:24Z</time>
      </trkpt>
      <trkpt lat="48.23307" lon="7.10916">
        <ele>762.94</ele>
        <time>2017-10-26T12:33:38Z</time>
      </trkpt>
      <trkpt lat="48.23294" lon="7.10908">
        <ele>764.87</ele>
        <time>2017-10-26T12:33:59Z</time>
      </trkpt>
      <trkpt lat="48.2328" lon="7.109">
        <ele>766.79</ele>
        <time>2017-10-26T12:34:17Z</time>
      </trkpt>
      <trkpt lat="48.23267" lon="7.10897">
        <ele>768.71</ele>
        <time>2017-10-26T12:34:35Z</time>
      </trkpt>
      <trkpt lat="48.23254" lon="7.10893">
        <ele>770.63</ele>
        <time>2017-10-26T12:34:54Z</time>
      </trkpt>
      <trkpt lat="48.23241" lon="7.10889">
        <ele>773.04</ele>
        <time>2017-10-26T12:35:12Z</time>
      </trkpt>
      <trkpt lat="48.2323" lon="7.10885">
        <ele>775.44</ele>
        <time>2017-10-26T12:35:33Z</time>
      </trkpt>
      <trkpt lat="48.23221" lon="7.10883">
        <ele>776.88</ele>
        <time>2017-10-26T12:35:48Z</time>
      </trkpt>
      <trkpt lat="48.23209" lon="7.10884">
        <ele>778.32</ele>
        <time>2017-10-26T12:36:05Z</time>
      </trkpt>
      <trkpt lat="48.23195" lon="7.10884">
        <ele>780.25</ele>
        <time>2017-10-26T12:36:22Z</time>
      </trkpt>
      <trkpt lat="48.23185" lon="7.10885">
        <ele>780.25</ele>
        <time>2017-10-26T12:36:53Z</time>
      </trkpt>
      <trkpt lat="48.23171" lon="7.10892">
        <ele>781.21</ele>
        <time>2017-10-26T12:37:17Z</time>
      </trkpt>
      <trkpt lat="48.23159" lon="7.10888">
        <ele>783.61</ele>
        <time>2017-10-26T12:37:38Z</time>
      </trkpt>
      <trkpt lat="48.23146" lon="7.10891">
        <ele>786.02</ele>
        <time>2017-10-26T12:37:57Z</time>
      </trkpt>
      <trkpt lat="48.23133" lon="7.10889">
        <ele>789.38</ele>
        <time>2017-10-26T12:38:22Z</time>
      </trkpt>
      <trkpt lat="48.23124" lon="7.10893">
        <ele>791.3</ele>
        <time>2017-10-26T12:38:41Z</time>
      </trkpt>
      <trkpt lat="48.23114" lon="7.10892">
        <ele>793.22</ele>
        <time>2017-10-26T12:38:59Z</time>
      </trkpt>
      <trkpt lat="48.23102" lon="7.10892">
        <ele>795.63</ele>
        <time>2017-10-26T12:39:19Z</time>
      </trkpt>
      <trkpt lat="48.23091" lon="7.10895">
        <ele>797.07</ele>
        <time>2017-10-26T12:39:34Z</time>
      </trkpt>
      <trkpt lat="48.23077" lon="7.10892">
        <ele>799.47</ele>
        <time>2017-10-26T12:39:52Z</time>
      </trkpt>
      <trkpt lat="48.23063" lon="7.10891">
        <ele>801.4</ele>
        <time>2017-10-26T12:40:20Z</time>
      </trkpt>
      <trkpt lat="48.2305" lon="7.10887">
        <ele>804.28</ele>
        <time>2017-10-26T12:40:40Z</time>
      </trkpt>
      <trkpt lat="48.23036" lon="7.10881">
        <ele>807.16</ele>
        <time>2017-10-26T12:41:00Z</time>
      </trkpt>
      <trkpt lat="48.23025" lon="7.10878">
        <ele>807.64</ele>
        <time>2017-10-26T12:41:15Z</time>
      </trkpt>
      <trkpt lat="48.23021" lon="7.10858">
        <ele>808.13</ele>
        <time>2017-10-26T12:42:00Z</time>
      </trkpt>
      <trkpt lat="48.23014" lon="7.10859">
        <ele>808.61</ele>
        <time>2017-10-26T12:42:17Z</time>
      </trkpt>
      <trkpt lat="48.23011" lon="7.1086">
        <ele>807.16</ele>
        <time>2017-10-26T12:46:34Z</time>
      </trkpt>
      <trkpt lat="48.23011" lon="7.10858">
        <ele>805.72</ele>
        <time>2017-10-26T12:51:35Z</time>
      </trkpt>
      <trkpt lat="48.23016" lon="7.10857">
        <ele>805.72</ele>
        <time>2017-10-26T12:52:06Z</time>
      </trkpt>
      <trkpt lat="48.23017" lon="7.10845">
        <ele>805.72</ele>
        <time>2017-10-26T12:52:40Z</time>
      </trkpt>
      <trkpt lat="48.2301" lon="7.10851">
        <ele>805.24</ele>
        <time>2017-10-26T12:52:54Z</time>
      </trkpt>
      <trkpt lat="48.23004" lon="7.10859">
        <ele>805.72</ele>
        <time>2017-10-26T12:53:06Z</time>
      </trkpt>
      <trkpt lat="48.22998" lon="7.10869">
        <ele>806.2</ele>
        <time>2017-10-26T12:53:31Z</time>
      </trkpt>
      <trkpt lat="48.22987" lon="7.10868">
        <ele>807.16</ele>
        <time>2017-10-26T12:53:41Z</time>
      </trkpt>
      <trkpt lat="48.22978" lon="7.10861">
        <ele>807.64</ele>
        <time>2017-10-26T12:53:53Z</time>
      </trkpt>
      <trkpt lat="48.22966" lon="7.1086">
        <ele>808.61</ele>
        <time>2017-10-26T12:54:04Z</time>
      </trkpt>
      <trkpt lat="48.22954" lon="7.10856">
        <ele>809.09</ele>
        <time>2017-10-26T12:54:14Z</time>
      </trkpt>
      <trkpt lat="48.22943" lon="7.1085">
        <ele>809.57</ele>
        <time>2017-10-26T12:54:24Z</time>
      </trkpt>
      <trkpt lat="48.22932" lon="7.10847">
        <ele>810.05</ele>
        <time>2017-10-26T12:54:34Z</time>
      </trkpt>
      <trkpt lat="48.22922" lon="7.10839">
        <ele>810.53</ele>
        <time>2017-10-26T12:54:43Z</time>
      </trkpt>
      <trkpt lat="48.22911" lon="7.10835">
        <ele>811.49</ele>
        <time>2017-10-26T12:54:54Z</time>
      </trkpt>
      <trkpt lat="48.22903" lon="7.10829">
        <ele>811.97</ele>
        <time>2017-10-26T12:55:05Z</time>
      </trkpt>
      <trkpt lat="48.22894" lon="7.10823">
        <ele>811.97</ele>
        <time>2017-10-26T12:55:15Z</time>
      </trkpt>
      <trkpt lat="48.22883" lon="7.10817">
        <ele>812.45</ele>
        <time>2017-10-26T12:55:26Z</time>
      </trkpt>
      <trkpt lat="48.22875" lon="7.10808">
        <ele>812.93</ele>
        <time>2017-10-26T12:55:36Z</time>
      </trkpt>
      <trkpt lat="48.22868" lon="7.10797">
        <ele>814.37</ele>
        <time>2017-10-26T12:55:49Z</time>
      </trkpt>
      <trkpt lat="48.22859" lon="7.10789">
        <ele>816.3</ele>
        <time>2017-10-26T12:56:01Z</time>
      </trkpt>
      <trkpt lat="48.2285" lon="7.10782">
        <ele>817.26</ele>
        <time>2017-10-26T12:56:12Z</time>
      </trkpt>
      <trkpt lat="48.22845" lon="7.10773">
        <ele>817.26</ele>
        <time>2017-10-26T12:56:34Z</time>
      </trkpt>
      <trkpt lat="48.22839" lon="7.10761">
        <ele>817.26</ele>
        <time>2017-10-26T12:56:45Z</time>
      </trkpt>
      <trkpt lat="48.22832" lon="7.10751">
        <ele>818.22</ele>
        <time>2017-10-26T12:56:56Z</time>
      </trkpt>
      <trkpt lat="48.22823" lon="7.1074">
        <ele>818.7</ele>
        <time>2017-10-26T12:57:08Z</time>
      </trkpt>
      <trkpt lat="48.22814" lon="7.10731">
        <ele>819.18</ele>
        <time>2017-10-26T12:57:18Z</time>
      </trkpt>
      <trkpt lat="48.22808" lon="7.10722">
        <ele>820.14</ele>
        <time>2017-10-26T12:57:27Z</time>
      </trkpt>
      <trkpt lat="48.22803" lon="7.1071">
        <ele>820.62</ele>
        <time>2017-10-26T12:57:37Z</time>
      </trkpt>
      <trkpt lat="48.22797" lon="7.10699">
        <ele>821.1</ele>
        <time>2017-10-26T12:57:47Z</time>
      </trkpt>
      <trkpt lat="48.22792" lon="7.10688">
        <ele>822.06</ele>
        <time>2017-10-26T12:57:58Z</time>
      </trkpt>
      <trkpt lat="48.22787" lon="7.10671">
        <ele>822.06</ele>
        <time>2017-10-26T12:58:09Z</time>
      </trkpt>
      <trkpt lat="48.22782" lon="7.10655">
        <ele>823.03</ele>
        <time>2017-10-26T12:58:22Z</time>
      </trkpt>
      <trkpt lat="48.22775" lon="7.1064">
        <ele>823.99</ele>
        <time>2017-10-26T12:58:33Z</time>
      </trkpt>
      <trkpt lat="48.2277" lon="7.10627">
        <ele>824.95</ele>
        <time>2017-10-26T12:58:45Z</time>
      </trkpt>
      <trkpt lat="48.22767" lon="7.10613">
        <ele>825.91</ele>
        <time>2017-10-26T12:58:57Z</time>
      </trkpt>
      <trkpt lat="48.22763" lon="7.10598">
        <ele>826.39</ele>
        <time>2017-10-26T12:59:08Z</time>
      </trkpt>
      <trkpt lat="48.2276" lon="7.10583">
        <ele>826.87</ele>
        <time>2017-10-26T12:59:20Z</time>
      </trkpt>
      <trkpt lat="48.22753" lon="7.10568">
        <ele>827.35</ele>
        <time>2017-10-26T12:59:31Z</time>
      </trkpt>
      <trkpt lat="48.22748" lon="7.10554">
        <ele>827.83</ele>
        <time>2017-10-26T12:59:41Z</time>
      </trkpt>
      <trkpt lat="48.22745" lon="7.10539">
        <ele>828.31</ele>
        <time>2017-10-26T12:59:52Z</time>
      </trkpt>
      <trkpt lat="48.2274" lon="7.10527">
        <ele>828.79</ele>
        <time>2017-10-26T13:00:02Z</time>
      </trkpt>
      <trkpt lat="48.22736" lon="7.10512">
        <ele>828.79</ele>
        <time>2017-10-26T13:00:12Z</time>
      </trkpt>
      <trkpt lat="48.22732" lon="7.10499">
        <ele>829.76</ele>
        <time>2017-10-26T13:00:21Z</time>
      </trkpt>
      <trkpt lat="48.22727" lon="7.10484">
        <ele>830.72</ele>
        <time>2017-10-26T13:00:32Z</time>
      </trkpt>
      <trkpt lat="48.22725" lon="7.10469">
        <ele>831.68</ele>
        <time>2017-10-26T13:00:44Z</time>
      </trkpt>
      <trkpt lat="48.22722" lon="7.10453">
        <ele>833.12</ele>
        <time>2017-10-26T13:00:56Z</time>
      </trkpt>
      <trkpt lat="48.2272" lon="7.10438">
        <ele>833.6</ele>
        <time>2017-10-26T13:01:07Z</time>
      </trkpt>
      <trkpt lat="48.22721" lon="7.10425">
        <ele>833.6</ele>
        <time>2017-10-26T13:01:17Z</time>
      </trkpt>
      <trkpt lat="48.2272" lon="7.10409">
        <ele>833.6</ele>
        <time>2017-10-26T13:01:27Z</time>
      </trkpt>
      <trkpt lat="48.22718" lon="7.10394">
        <ele>834.08</ele>
        <time>2017-10-26T13:01:38Z</time>
      </trkpt>
      <trkpt lat="48.22717" lon="7.10376">
        <ele>835.04</ele>
        <time>2017-10-26T13:01:49Z</time>
      </trkpt>
      <trkpt lat="48.22714" lon="7.1036">
        <ele>835.52</ele>
        <time>2017-10-26T13:01:59Z</time>
      </trkpt>
      <trkpt lat="48.22714" lon="7.10347">
        <ele>836</ele>
        <time>2017-10-26T13:02:10Z</time>
      </trkpt>
      <trkpt lat="48.22713" lon="7.10331">
        <ele>836.48</ele>
        <time>2017-10-26T13:02:20Z</time>
      </trkpt>
      <trkpt lat="48.22713" lon="7.10317">
        <ele>836.96</ele>
        <time>2017-10-26T13:02:31Z</time>
      </trkpt>
      <trkpt lat="48.22714" lon="7.10301">
        <ele>837.45</ele>
        <time>2017-10-26T13:02:43Z</time>
      </trkpt>
      <trkpt lat="48.22718" lon="7.10286">
        <ele>838.41</ele>
        <time>2017-10-26T13:02:53Z</time>
      </trkpt>
      <trkpt lat="48.22719" lon="7.10271">
        <ele>839.37</ele>
        <time>2017-10-26T13:03:04Z</time>
      </trkpt>
      <trkpt lat="48.22724" lon="7.1026">
        <ele>839.37</ele>
        <time>2017-10-26T13:03:15Z</time>
      </trkpt>
      <trkpt lat="48.22725" lon="7.10243">
        <ele>840.81</ele>
        <time>2017-10-26T13:03:27Z</time>
      </trkpt>
      <trkpt lat="48.22729" lon="7.10229">
        <ele>841.29</ele>
        <time>2017-10-26T13:03:38Z</time>
      </trkpt>
      <trkpt lat="48.2273" lon="7.10214">
        <ele>841.29</ele>
        <time>2017-10-26T13:03:49Z</time>
      </trkpt>
      <trkpt lat="48.22732" lon="7.10198">
        <ele>842.25</ele>
        <time>2017-10-26T13:04:01Z</time>
      </trkpt>
      <trkpt lat="48.22733" lon="7.10182">
        <ele>842.73</ele>
        <time>2017-10-26T13:04:21Z</time>
      </trkpt>
      <trkpt lat="48.22735" lon="7.10167">
        <ele>843.21</ele>
        <time>2017-10-26T13:04:33Z</time>
      </trkpt>
      <trkpt lat="48.22737" lon="7.10154">
        <ele>844.66</ele>
        <time>2017-10-26T13:04:44Z</time>
      </trkpt>
      <trkpt lat="48.22737" lon="7.10141">
        <ele>845.14</ele>
        <time>2017-10-26T13:05:02Z</time>
      </trkpt>
      <trkpt lat="48.22736" lon="7.10125">
        <ele>846.1</ele>
        <time>2017-10-26T13:05:15Z</time>
      </trkpt>
      <trkpt lat="48.22732" lon="7.10111">
        <ele>845.62</ele>
        <time>2017-10-26T13:05:34Z</time>
      </trkpt>
      <trkpt lat="48.22727" lon="7.10104">
        <ele>845.14</ele>
        <time>2017-10-26T13:06:01Z</time>
      </trkpt>
      <trkpt lat="48.22719" lon="7.101">
        <ele>845.14</ele>
        <time>2017-10-26T13:06:20Z</time>
      </trkpt>
      <trkpt lat="48.22714" lon="7.10107">
        <ele>847.54</ele>
        <time>2017-10-26T13:06:46Z</time>
      </trkpt>
      <trkpt lat="48.22713" lon="7.101">
        <ele>845.14</ele>
        <time>2017-10-26T13:07:27Z</time>
      </trkpt>
      <trkpt lat="48.22712" lon="7.10094">
        <ele>844.18</ele>
        <time>2017-10-26T13:09:00Z</time>
      </trkpt>
      <trkpt lat="48.22706" lon="7.101">
        <ele>844.66</ele>
        <time>2017-10-26T13:09:23Z</time>
      </trkpt>
      <trkpt lat="48.22709" lon="7.10097">
        <ele>844.66</ele>
        <time>2017-10-26T13:09:39Z</time>
      </trkpt>
      <trkpt lat="48.22706" lon="7.10099">
        <ele>844.66</ele>
        <time>2017-10-26T13:11:21Z</time>
      </trkpt>
      <trkpt lat="48.22697" lon="7.10102">
        <ele>845.14</ele>
        <time>2017-10-26T13:11:33Z</time>
      </trkpt>
      <trkpt lat="48.22688" lon="7.10105">
        <ele>845.14</ele>
        <time>2017-10-26T13:11:43Z</time>
      </trkpt>
      <trkpt lat="48.22679" lon="7.10107">
        <ele>844.66</ele>
        <time>2017-10-26T13:11:53Z</time>
      </trkpt>
      <trkpt lat="48.2267" lon="7.10111">
        <ele>843.69</ele>
        <time>2017-10-26T13:12:03Z</time>
      </trkpt>
      <trkpt lat="48.22661" lon="7.10115">
        <ele>843.21</ele>
        <time>2017-10-26T13:12:12Z</time>
      </trkpt>
      <trkpt lat="48.22653" lon="7.10122">
        <ele>843.69</ele>
        <time>2017-10-26T13:12:22Z</time>
      </trkpt>
      <trkpt lat="48.22644" lon="7.10128">
        <ele>843.21</ele>
        <time>2017-10-26T13:12:33Z</time>
      </trkpt>
      <trkpt lat="48.22635" lon="7.10133">
        <ele>842.73</ele>
        <time>2017-10-26T13:12:42Z</time>
      </trkpt>
      <trkpt lat="48.22627" lon="7.10141">
        <ele>842.25</ele>
        <time>2017-10-26T13:12:52Z</time>
      </trkpt>
      <trkpt lat="48.22618" lon="7.10146">
        <ele>841.29</ele>
        <time>2017-10-26T13:13:03Z</time>
      </trkpt>
      <trkpt lat="48.22609" lon="7.10154">
        <ele>841.29</ele>
        <time>2017-10-26T13:13:14Z</time>
      </trkpt>
      <trkpt lat="48.22601" lon="7.10161">
        <ele>840.33</ele>
        <time>2017-10-26T13:13:25Z</time>
      </trkpt>
      <trkpt lat="48.22592" lon="7.10165">
        <ele>838.89</ele>
        <time>2017-10-26T13:13:38Z</time>
      </trkpt>
      <trkpt lat="48.22584" lon="7.10174">
        <ele>837.93</ele>
        <time>2017-10-26T13:13:49Z</time>
      </trkpt>
      <trkpt lat="48.22581" lon="7.10177">
        <ele>838.41</ele>
        <time>2017-10-26T13:14:16Z</time>
      </trkpt>
      <trkpt lat="48.22576" lon="7.10188">
        <ele>840.33</ele>
        <time>2017-10-26T13:14:43Z</time>
      </trkpt>
      <trkpt lat="48.22569" lon="7.10194">
        <ele>838.41</ele>
        <time>2017-10-26T13:15:02Z</time>
      </trkpt>
      <trkpt lat="48.2256" lon="7.10202">
        <ele>836.96</ele>
        <time>2017-10-26T13:15:18Z</time>
      </trkpt>
      <trkpt lat="48.22553" lon="7.10211">
        <ele>836.48</ele>
        <time>2017-10-26T13:15:30Z</time>
      </trkpt>
      <trkpt lat="48.22547" lon="7.10224">
        <ele>836</ele>
        <time>2017-10-26T13:15:41Z</time>
      </trkpt>
      <trkpt lat="48.22541" lon="7.10237">
        <ele>836</ele>
        <time>2017-10-26T13:15:54Z</time>
      </trkpt>
      <trkpt lat="48.22535" lon="7.10249">
        <ele>835.04</ele>
        <time>2017-10-26T13:16:07Z</time>
      </trkpt>
      <trkpt lat="48.22529" lon="7.10261">
        <ele>834.56</ele>
        <time>2017-10-26T13:16:20Z</time>
      </trkpt>
      <trkpt lat="48.22524" lon="7.10276">
        <ele>834.08</ele>
        <time>2017-10-26T13:16:35Z</time>
      </trkpt>
      <trkpt lat="48.22518" lon="7.1029">
        <ele>833.6</ele>
        <time>2017-10-26T13:16:50Z</time>
      </trkpt>
      <trkpt lat="48.22515" lon="7.10304">
        <ele>834.08</ele>
        <time>2017-10-26T13:17:06Z</time>
      </trkpt>
      <trkpt lat="48.22509" lon="7.10314">
        <ele>832.64</ele>
        <time>2017-10-26T13:17:20Z</time>
      </trkpt>
      <trkpt lat="48.22502" lon="7.10333">
        <ele>833.12</ele>
        <time>2017-10-26T13:17:32Z</time>
      </trkpt>
      <trkpt lat="48.22497" lon="7.10347">
        <ele>833.12</ele>
        <time>2017-10-26T13:17:44Z</time>
      </trkpt>
      <trkpt lat="48.22493" lon="7.10361">
        <ele>833.6</ele>
        <time>2017-10-26T13:17:55Z</time>
      </trkpt>
      <trkpt lat="48.22489" lon="7.10375">
        <ele>834.08</ele>
        <time>2017-10-26T13:18:06Z</time>
      </trkpt>
      <trkpt lat="48.22483" lon="7.1039">
        <ele>833.6</ele>
        <time>2017-10-26T13:18:18Z</time>
      </trkpt>
      <trkpt lat="48.22479" lon="7.10405">
        <ele>833.12</ele>
        <time>2017-10-26T13:18:31Z</time>
      </trkpt>
      <trkpt lat="48.22473" lon="7.10418">
        <ele>833.12</ele>
        <time>2017-10-26T13:18:43Z</time>
      </trkpt>
      <trkpt lat="48.22469" lon="7.10436">
        <ele>833.12</ele>
        <time>2017-10-26T13:18:55Z</time>
      </trkpt>
      <trkpt lat="48.22463" lon="7.10451">
        <ele>832.64</ele>
        <time>2017-10-26T13:19:07Z</time>
      </trkpt>
      <trkpt lat="48.22461" lon="7.10467">
        <ele>832.64</ele>
        <time>2017-10-26T13:19:19Z</time>
      </trkpt>
      <trkpt lat="48.22456" lon="7.10478">
        <ele>831.68</ele>
        <time>2017-10-26T13:19:32Z</time>
      </trkpt>
      <trkpt lat="48.22455" lon="7.10494">
        <ele>831.68</ele>
        <time>2017-10-26T13:19:46Z</time>
      </trkpt>
      <trkpt lat="48.22452" lon="7.10508">
        <ele>832.64</ele>
        <time>2017-10-26T13:19:58Z</time>
      </trkpt>
      <trkpt lat="48.22448" lon="7.10521">
        <ele>831.2</ele>
        <time>2017-10-26T13:20:10Z</time>
      </trkpt>
      <trkpt lat="48.22445" lon="7.10534">
        <ele>831.2</ele>
        <time>2017-10-26T13:20:20Z</time>
      </trkpt>
      <trkpt lat="48.22442" lon="7.10547">
        <ele>830.72</ele>
        <time>2017-10-26T13:20:33Z</time>
      </trkpt>
      <trkpt lat="48.22437" lon="7.10566">
        <ele>830.24</ele>
        <time>2017-10-26T13:20:47Z</time>
      </trkpt>
      <trkpt lat="48.22433" lon="7.10585">
        <ele>830.24</ele>
        <time>2017-10-26T13:21:01Z</time>
      </trkpt>
      <trkpt lat="48.22431" lon="7.10598">
        <ele>829.76</ele>
        <time>2017-10-26T13:21:14Z</time>
      </trkpt>
      <trkpt lat="48.22424" lon="7.10608">
        <ele>830.24</ele>
        <time>2017-10-26T13:21:27Z</time>
      </trkpt>
      <trkpt lat="48.22414" lon="7.10617">
        <ele>830.24</ele>
        <time>2017-10-26T13:21:40Z</time>
      </trkpt>
      <trkpt lat="48.22404" lon="7.10621">
        <ele>829.76</ele>
        <time>2017-10-26T13:21:51Z</time>
      </trkpt>
      <trkpt lat="48.22393" lon="7.10627">
        <ele>829.27</ele>
        <time>2017-10-26T13:22:03Z</time>
      </trkpt>
      <trkpt lat="48.22382" lon="7.10631">
        <ele>828.79</ele>
        <time>2017-10-26T13:22:18Z</time>
      </trkpt>
      <trkpt lat="48.2237" lon="7.10636">
        <ele>828.31</ele>
        <time>2017-10-26T13:22:31Z</time>
      </trkpt>
      <trkpt lat="48.22361" lon="7.10638">
        <ele>827.83</ele>
        <time>2017-10-26T13:22:44Z</time>
      </trkpt>
      <trkpt lat="48.22353" lon="7.10647">
        <ele>828.31</ele>
        <time>2017-10-26T13:22:56Z</time>
      </trkpt>
      <trkpt lat="48.22342" lon="7.10651">
        <ele>827.83</ele>
        <time>2017-10-26T13:23:09Z</time>
      </trkpt>
      <trkpt lat="48.22327" lon="7.10656">
        <ele>827.35</ele>
        <time>2017-10-26T13:23:21Z</time>
      </trkpt>
      <trkpt lat="48.22314" lon="7.10674">
        <ele>829.27</ele>
        <time>2017-10-26T13:23:34Z</time>
      </trkpt>
      <trkpt lat="48.22305" lon="7.10681">
        <ele>829.27</ele>
        <time>2017-10-26T13:23:46Z</time>
      </trkpt>
      <trkpt lat="48.22296" lon="7.10687">
        <ele>826.39</ele>
        <time>2017-10-26T13:24:01Z</time>
      </trkpt>
      <trkpt lat="48.22295" lon="7.10688">
        <ele>826.39</ele>
        <time>2017-10-26T13:24:35Z</time>
      </trkpt>
      <trkpt lat="48.22296" lon="7.10686">
        <ele>825.91</ele>
        <time>2017-10-26T13:26:53Z</time>
      </trkpt>
      <trkpt lat="48.22299" lon="7.10679">
        <ele>825.43</ele>
        <time>2017-10-26T13:27:18Z</time>
      </trkpt>
      <trkpt lat="48.22304" lon="7.10669">
        <ele>824.47</ele>
        <time>2017-10-26T13:27:30Z</time>
      </trkpt>
      <trkpt lat="48.22311" lon="7.1066">
        <ele>823.03</ele>
        <time>2017-10-26T13:27:41Z</time>
      </trkpt>
      <trkpt lat="48.22318" lon="7.10654">
        <ele>822.06</ele>
        <time>2017-10-26T13:27:53Z</time>
      </trkpt>
      <trkpt lat="48.22327" lon="7.1065">
        <ele>821.1</ele>
        <time>2017-10-26T13:28:05Z</time>
      </trkpt>
      <trkpt lat="48.22335" lon="7.10645">
        <ele>820.14</ele>
        <time>2017-10-26T13:28:15Z</time>
      </trkpt>
      <trkpt lat="48.22345" lon="7.10638">
        <ele>819.66</ele>
        <time>2017-10-26T13:28:24Z</time>
      </trkpt>
      <trkpt lat="48.22356" lon="7.1063">
        <ele>818.7</ele>
        <time>2017-10-26T13:28:35Z</time>
      </trkpt>
      <trkpt lat="48.22365" lon="7.10624">
        <ele>817.74</ele>
        <time>2017-10-26T13:28:46Z</time>
      </trkpt>
      <trkpt lat="48.22374" lon="7.10617">
        <ele>817.26</ele>
        <time>2017-10-26T13:28:55Z</time>
      </trkpt>
      <trkpt lat="48.22383" lon="7.10608">
        <ele>816.3</ele>
        <time>2017-10-26T13:29:06Z</time>
      </trkpt>
      <trkpt lat="48.22391" lon="7.10601">
        <ele>815.82</ele>
        <time>2017-10-26T13:30:03Z</time>
      </trkpt>
      <trkpt lat="48.22385" lon="7.10599">
        <ele>816.78</ele>
        <time>2017-10-26T13:30:27Z</time>
      </trkpt>
      <trkpt lat="48.22376" lon="7.10603">
        <ele>817.26</ele>
        <time>2017-10-26T13:30:58Z</time>
      </trkpt>
      <trkpt lat="48.22371" lon="7.10608">
        <ele>818.22</ele>
        <time>2017-10-26T13:31:35Z</time>
      </trkpt>
      <trkpt lat="48.22362" lon="7.10613">
        <ele>819.18</ele>
        <time>2017-10-26T13:31:47Z</time>
      </trkpt>
      <trkpt lat="48.22352" lon="7.10618">
        <ele>819.66</ele>
        <time>2017-10-26T13:31:59Z</time>
      </trkpt>
      <trkpt lat="48.22344" lon="7.10626">
        <ele>820.62</ele>
        <time>2017-10-26T13:32:09Z</time>
      </trkpt>
      <trkpt lat="48.22335" lon="7.1063">
        <ele>821.58</ele>
        <time>2017-10-26T13:32:20Z</time>
      </trkpt>
      <trkpt lat="48.22324" lon="7.10639">
        <ele>823.03</ele>
        <time>2017-10-26T13:32:33Z</time>
      </trkpt>
      <trkpt lat="48.22312" lon="7.10651">
        <ele>823.99</ele>
        <time>2017-10-26T13:32:47Z</time>
      </trkpt>
      <trkpt lat="48.22305" lon="7.10664">
        <ele>824.95</ele>
        <time>2017-10-26T13:33:00Z</time>
      </trkpt>
      <trkpt lat="48.22298" lon="7.10677">
        <ele>825.91</ele>
        <time>2017-10-26T13:33:12Z</time>
      </trkpt>
      <trkpt lat="48.22295" lon="7.10693">
        <ele>826.87</ele>
        <time>2017-10-26T13:33:26Z</time>
      </trkpt>
      <trkpt lat="48.22295" lon="7.10698">
        <ele>826.87</ele>
        <time>2017-10-26T13:35:14Z</time>
      </trkpt>
      <trkpt lat="48.22289" lon="7.10713">
        <ele>825.91</ele>
        <time>2017-10-26T13:35:27Z</time>
      </trkpt>
      <trkpt lat="48.22288" lon="7.10729">
        <ele>825.91</ele>
        <time>2017-10-26T13:35:37Z</time>
      </trkpt>
      <trkpt lat="48.22287" lon="7.10745">
        <ele>826.39</ele>
        <time>2017-10-26T13:35:49Z</time>
      </trkpt>
      <trkpt lat="48.22287" lon="7.10759">
        <ele>826.39</ele>
        <time>2017-10-26T13:36:00Z</time>
      </trkpt>
      <trkpt lat="48.22285" lon="7.10776">
        <ele>826.87</ele>
        <time>2017-10-26T13:36:12Z</time>
      </trkpt>
      <trkpt lat="48.22284" lon="7.1079">
        <ele>826.87</ele>
        <time>2017-10-26T13:36:24Z</time>
      </trkpt>
      <trkpt lat="48.22282" lon="7.10805">
        <ele>826.87</ele>
        <time>2017-10-26T13:36:35Z</time>
      </trkpt>
      <trkpt lat="48.22281" lon="7.10821">
        <ele>826.39</ele>
        <time>2017-10-26T13:36:45Z</time>
      </trkpt>
      <trkpt lat="48.22279" lon="7.10837">
        <ele>826.39</ele>
        <time>2017-10-26T13:36:55Z</time>
      </trkpt>
      <trkpt lat="48.22277" lon="7.10853">
        <ele>826.39</ele>
        <time>2017-10-26T13:37:06Z</time>
      </trkpt>
      <trkpt lat="48.22276" lon="7.10869">
        <ele>826.39</ele>
        <time>2017-10-26T13:37:16Z</time>
      </trkpt>
      <trkpt lat="48.22272" lon="7.10889">
        <ele>826.39</ele>
        <time>2017-10-26T13:37:26Z</time>
      </trkpt>
      <trkpt lat="48.22271" lon="7.10903">
        <ele>825.91</ele>
        <time>2017-10-26T13:37:35Z</time>
      </trkpt>
      <trkpt lat="48.2227" lon="7.10918">
        <ele>825.91</ele>
        <time>2017-10-26T13:37:45Z</time>
      </trkpt>
      <trkpt lat="48.2227" lon="7.10934">
        <ele>825.91</ele>
        <time>2017-10-26T13:37:54Z</time>
      </trkpt>
      <trkpt lat="48.22271" lon="7.10949">
        <ele>825.43</ele>
        <time>2017-10-26T13:38:04Z</time>
      </trkpt>
      <trkpt lat="48.22272" lon="7.10964">
        <ele>825.91</ele>
        <time>2017-10-26T13:38:14Z</time>
      </trkpt>
      <trkpt lat="48.22273" lon="7.10978">
        <ele>826.39</ele>
        <time>2017-10-26T13:38:23Z</time>
      </trkpt>
      <trkpt lat="48.22274" lon="7.10991">
        <ele>826.39</ele>
        <time>2017-10-26T13:38:33Z</time>
      </trkpt>
      <trkpt lat="48.22276" lon="7.11006">
        <ele>826.39</ele>
        <time>2017-10-26T13:38:43Z</time>
      </trkpt>
      <trkpt lat="48.22277" lon="7.11022">
        <ele>826.39</ele>
        <time>2017-10-26T13:38:52Z</time>
      </trkpt>
      <trkpt lat="48.22279" lon="7.11038">
        <ele>825.91</ele>
        <time>2017-10-26T13:39:01Z</time>
      </trkpt>
      <trkpt lat="48.22282" lon="7.11052">
        <ele>825.91</ele>
        <time>2017-10-26T13:39:11Z</time>
      </trkpt>
      <trkpt lat="48.22286" lon="7.11067">
        <ele>824.95</ele>
        <time>2017-10-26T13:39:21Z</time>
      </trkpt>
      <trkpt lat="48.22291" lon="7.11079">
        <ele>824.95</ele>
        <time>2017-10-26T13:39:30Z</time>
      </trkpt>
      <trkpt lat="48.22295" lon="7.11094">
        <ele>824.95</ele>
        <time>2017-10-26T13:39:40Z</time>
      </trkpt>
      <trkpt lat="48.22296" lon="7.11108">
        <ele>825.43</ele>
        <time>2017-10-26T13:39:50Z</time>
      </trkpt>
      <trkpt lat="48.22294" lon="7.1112">
        <ele>825.43</ele>
        <time>2017-10-26T13:40:00Z</time>
      </trkpt>
      <trkpt lat="48.22293" lon="7.11136">
        <ele>825.91</ele>
        <time>2017-10-26T13:40:11Z</time>
      </trkpt>
      <trkpt lat="48.22291" lon="7.11148">
        <ele>825.91</ele>
        <time>2017-10-26T13:40:22Z</time>
      </trkpt>
      <trkpt lat="48.22289" lon="7.11166">
        <ele>825.91</ele>
        <time>2017-10-26T13:40:34Z</time>
      </trkpt>
      <trkpt lat="48.22285" lon="7.11181">
        <ele>825.43</ele>
        <time>2017-10-26T13:40:47Z</time>
      </trkpt>
      <trkpt lat="48.22278" lon="7.11197">
        <ele>825.91</ele>
        <time>2017-10-26T13:41:01Z</time>
      </trkpt>
      <trkpt lat="48.22273" lon="7.11213">
        <ele>826.39</ele>
        <time>2017-10-26T13:41:14Z</time>
      </trkpt>
      <trkpt lat="48.22266" lon="7.11228">
        <ele>826.39</ele>
        <time>2017-10-26T13:41:26Z</time>
      </trkpt>
      <trkpt lat="48.2226" lon="7.11244">
        <ele>826.87</ele>
        <time>2017-10-26T13:41:38Z</time>
      </trkpt>
      <trkpt lat="48.22253" lon="7.11259">
        <ele>826.39</ele>
        <time>2017-10-26T13:41:50Z</time>
      </trkpt>
      <trkpt lat="48.22251" lon="7.11278">
        <ele>826.39</ele>
        <time>2017-10-26T13:42:00Z</time>
      </trkpt>
      <trkpt lat="48.22248" lon="7.11295">
        <ele>826.87</ele>
        <time>2017-10-26T13:42:11Z</time>
      </trkpt>
      <trkpt lat="48.22243" lon="7.11316">
        <ele>826.87</ele>
        <time>2017-10-26T13:42:27Z</time>
      </trkpt>
      <trkpt lat="48.2224" lon="7.1134">
        <ele>827.35</ele>
        <time>2017-10-26T13:42:44Z</time>
      </trkpt>
      <trkpt lat="48.22233" lon="7.1136">
        <ele>827.35</ele>
        <time>2017-10-26T13:42:55Z</time>
      </trkpt>
      <trkpt lat="48.22228" lon="7.11387">
        <ele>827.83</ele>
        <time>2017-10-26T13:43:07Z</time>
      </trkpt>
      <trkpt lat="48.22229" lon="7.11405">
        <ele>827.83</ele>
        <time>2017-10-26T13:43:21Z</time>
      </trkpt>
      <trkpt lat="48.22228" lon="7.11421">
        <ele>826.87</ele>
        <time>2017-10-26T13:43:32Z</time>
      </trkpt>
      <trkpt lat="48.22223" lon="7.11439">
        <ele>826.39</ele>
        <time>2017-10-26T13:43:46Z</time>
      </trkpt>
      <trkpt lat="48.22222" lon="7.11454">
        <ele>826.87</ele>
        <time>2017-10-26T13:43:57Z</time>
      </trkpt>
      <trkpt lat="48.22218" lon="7.11477">
        <ele>827.35</ele>
        <time>2017-10-26T13:44:09Z</time>
      </trkpt>
      <trkpt lat="48.22215" lon="7.1149">
        <ele>826.87</ele>
        <time>2017-10-26T13:44:20Z</time>
      </trkpt>
      <trkpt lat="48.22218" lon="7.11514">
        <ele>826.87</ele>
        <time>2017-10-26T13:44:33Z</time>
      </trkpt>
      <trkpt lat="48.22214" lon="7.11531">
        <ele>826.87</ele>
        <time>2017-10-26T13:44:45Z</time>
      </trkpt>
      <trkpt lat="48.22212" lon="7.11551">
        <ele>826.87</ele>
        <time>2017-10-26T13:44:56Z</time>
      </trkpt>
      <trkpt lat="48.22207" lon="7.1157">
        <ele>827.35</ele>
        <time>2017-10-26T13:45:07Z</time>
      </trkpt>
      <trkpt lat="48.22201" lon="7.11585">
        <ele>827.35</ele>
        <time>2017-10-26T13:45:19Z</time>
      </trkpt>
      <trkpt lat="48.22194" lon="7.11597">
        <ele>827.35</ele>
        <time>2017-10-26T13:45:32Z</time>
      </trkpt>
      <trkpt lat="48.22189" lon="7.11608">
        <ele>827.83</ele>
        <time>2017-10-26T13:45:44Z</time>
      </trkpt>
      <trkpt lat="48.22185" lon="7.11628">
        <ele>827.83</ele>
        <time>2017-10-26T13:45:57Z</time>
      </trkpt>
      <trkpt lat="48.22179" lon="7.11644">
        <ele>827.35</ele>
        <time>2017-10-26T13:46:09Z</time>
      </trkpt>
      <trkpt lat="48.22176" lon="7.11668">
        <ele>827.35</ele>
        <time>2017-10-26T13:46:20Z</time>
      </trkpt>
      <trkpt lat="48.2217" lon="7.11688">
        <ele>828.31</ele>
        <time>2017-10-26T13:46:30Z</time>
      </trkpt>
      <trkpt lat="48.22166" lon="7.11704">
        <ele>828.31</ele>
        <time>2017-10-26T13:46:40Z</time>
      </trkpt>
      <trkpt lat="48.22159" lon="7.11715">
        <ele>828.31</ele>
        <time>2017-10-26T13:46:51Z</time>
      </trkpt>
      <trkpt lat="48.22152" lon="7.11724">
        <ele>827.83</ele>
        <time>2017-10-26T13:47:01Z</time>
      </trkpt>
      <trkpt lat="48.22145" lon="7.11734">
        <ele>826.87</ele>
        <time>2017-10-26T13:47:11Z</time>
      </trkpt>
      <trkpt lat="48.22136" lon="7.1174">
        <ele>826.39</ele>
        <time>2017-10-26T13:47:22Z</time>
      </trkpt>
      <trkpt lat="48.22131" lon="7.11757">
        <ele>824.95</ele>
        <time>2017-10-26T13:47:34Z</time>
      </trkpt>
      <trkpt lat="48.22123" lon="7.11768">
        <ele>823.99</ele>
        <time>2017-10-26T13:47:45Z</time>
      </trkpt>
      <trkpt lat="48.22117" lon="7.11785">
        <ele>823.03</ele>
        <time>2017-10-26T13:47:59Z</time>
      </trkpt>
      <trkpt lat="48.22105" lon="7.11812">
        <ele>822.06</ele>
        <time>2017-10-26T13:48:28Z</time>
      </trkpt>
      <trkpt lat="48.221" lon="7.11815">
        <ele>821.1</ele>
        <time>2017-10-26T13:48:46Z</time>
      </trkpt>
      <trkpt lat="48.22091" lon="7.11822">
        <ele>818.7</ele>
        <time>2017-10-26T13:49:30Z</time>
      </trkpt>
      <trkpt lat="48.22092" lon="7.11807">
        <ele>815.82</ele>
        <time>2017-10-26T13:49:56Z</time>
      </trkpt>
      <trkpt lat="48.22088" lon="7.11796">
        <ele>811.97</ele>
        <time>2017-10-26T13:50:25Z</time>
      </trkpt>
      <trkpt lat="48.22075" lon="7.11802">
        <ele>810.53</ele>
        <time>2017-10-26T13:52:28Z</time>
      </trkpt>
      <trkpt lat="48.22078" lon="7.11781">
        <ele>808.61</ele>
        <time>2017-10-26T13:54:29Z</time>
      </trkpt>
      <trkpt lat="48.22073" lon="7.1177">
        <ele>807.16</ele>
        <time>2017-10-26T13:54:51Z</time>
      </trkpt>
      <trkpt lat="48.22067" lon="7.11751">
        <ele>805.24</ele>
        <time>2017-10-26T13:55:14Z</time>
      </trkpt>
      <trkpt lat="48.22075" lon="7.11715">
        <ele>801.88</ele>
        <time>2017-10-26T13:55:38Z</time>
      </trkpt>
      <trkpt lat="48.2208" lon="7.11697">
        <ele>798.99</ele>
        <time>2017-10-26T13:56:01Z</time>
      </trkpt>
      <trkpt lat="48.22083" lon="7.11673">
        <ele>796.11</ele>
        <time>2017-10-26T13:56:34Z</time>
      </trkpt>
      <trkpt lat="48.22075" lon="7.11662">
        <ele>793.22</ele>
        <time>2017-10-26T13:56:55Z</time>
      </trkpt>
      <trkpt lat="48.2208" lon="7.11634">
        <ele>790.82</ele>
        <time>2017-10-26T13:57:10Z</time>
      </trkpt>
      <trkpt lat="48.22076" lon="7.11623">
        <ele>788.9</ele>
        <time>2017-10-26T13:57:26Z</time>
      </trkpt>
      <trkpt lat="48.22074" lon="7.11607">
        <ele>786.98</ele>
        <time>2017-10-26T13:57:40Z</time>
      </trkpt>
      <trkpt lat="48.22075" lon="7.11591">
        <ele>785.05</ele>
        <time>2017-10-26T13:57:53Z</time>
      </trkpt>
      <trkpt lat="48.22076" lon="7.11565">
        <ele>782.65</ele>
        <time>2017-10-26T13:58:07Z</time>
      </trkpt>
      <trkpt lat="48.2208" lon="7.11551">
        <ele>780.25</ele>
        <time>2017-10-26T13:58:21Z</time>
      </trkpt>
      <trkpt lat="48.22085" lon="7.11528">
        <ele>777.84</ele>
        <time>2017-10-26T13:58:36Z</time>
      </trkpt>
      <trkpt lat="48.22087" lon="7.11507">
        <ele>775.44</ele>
        <time>2017-10-26T13:58:49Z</time>
      </trkpt>
      <trkpt lat="48.22082" lon="7.11496">
        <ele>773.52</ele>
        <time>2017-10-26T13:59:04Z</time>
      </trkpt>
      <trkpt lat="48.2208" lon="7.11482">
        <ele>771.6</ele>
        <time>2017-10-26T13:59:18Z</time>
      </trkpt>
      <trkpt lat="48.22074" lon="7.11473">
        <ele>769.67</ele>
        <time>2017-10-26T13:59:30Z</time>
      </trkpt>
      <trkpt lat="48.22069" lon="7.11464">
        <ele>767.27</ele>
        <time>2017-10-26T13:59:42Z</time>
      </trkpt>
      <trkpt lat="48.2207" lon="7.11446">
        <ele>765.83</ele>
        <time>2017-10-26T13:59:54Z</time>
      </trkpt>
      <trkpt lat="48.2207" lon="7.11427">
        <ele>764.39</ele>
        <time>2017-10-26T14:00:06Z</time>
      </trkpt>
      <trkpt lat="48.22067" lon="7.11413">
        <ele>761.98</ele>
        <time>2017-10-26T14:00:22Z</time>
      </trkpt>
      <trkpt lat="48.22062" lon="7.114">
        <ele>760.54</ele>
        <time>2017-10-26T14:00:36Z</time>
      </trkpt>
      <trkpt lat="48.22056" lon="7.11383">
        <ele>758.62</ele>
        <time>2017-10-26T14:00:50Z</time>
      </trkpt>
      <trkpt lat="48.22056" lon="7.11366">
        <ele>757.18</ele>
        <time>2017-10-26T14:01:05Z</time>
      </trkpt>
      <trkpt lat="48.22057" lon="7.1135">
        <ele>755.73</ele>
        <time>2017-10-26T14:01:20Z</time>
      </trkpt>
      <trkpt lat="48.22049" lon="7.11344">
        <ele>753.81</ele>
        <time>2017-10-26T14:01:33Z</time>
      </trkpt>
      <trkpt lat="48.22043" lon="7.11339">
        <ele>752.37</ele>
        <time>2017-10-26T14:01:45Z</time>
      </trkpt>
      <trkpt lat="48.22041" lon="7.11318">
        <ele>750.45</ele>
        <time>2017-10-26T14:02:00Z</time>
      </trkpt>
      <trkpt lat="48.22046" lon="7.1129">
        <ele>748.52</ele>
        <time>2017-10-26T14:02:15Z</time>
      </trkpt>
      <trkpt lat="48.22051" lon="7.11269">
        <ele>746.6</ele>
        <time>2017-10-26T14:02:29Z</time>
      </trkpt>
      <trkpt lat="48.22053" lon="7.11248">
        <ele>744.68</ele>
        <time>2017-10-26T14:02:42Z</time>
      </trkpt>
      <trkpt lat="48.22058" lon="7.11225">
        <ele>742.76</ele>
        <time>2017-10-26T14:02:55Z</time>
      </trkpt>
      <trkpt lat="48.22061" lon="7.11212">
        <ele>741.79</ele>
        <time>2017-10-26T14:03:10Z</time>
      </trkpt>
      <trkpt lat="48.22067" lon="7.11185">
        <ele>739.87</ele>
        <time>2017-10-26T14:03:24Z</time>
      </trkpt>
      <trkpt lat="48.22068" lon="7.11165">
        <ele>738.43</ele>
        <time>2017-10-26T14:03:39Z</time>
      </trkpt>
      <trkpt lat="48.22067" lon="7.1115">
        <ele>736.99</ele>
        <time>2017-10-26T14:03:50Z</time>
      </trkpt>
      <trkpt lat="48.22074" lon="7.11131">
        <ele>735.55</ele>
        <time>2017-10-26T14:04:02Z</time>
      </trkpt>
      <trkpt lat="48.22083" lon="7.11109">
        <ele>734.1</ele>
        <time>2017-10-26T14:04:15Z</time>
      </trkpt>
      <trkpt lat="48.22075" lon="7.11092">
        <ele>733.14</ele>
        <time>2017-10-26T14:04:26Z</time>
      </trkpt>
      <trkpt lat="48.22072" lon="7.11078">
        <ele>731.7</ele>
        <time>2017-10-26T14:04:37Z</time>
      </trkpt>
      <trkpt lat="48.2207" lon="7.11063">
        <ele>730.26</ele>
        <time>2017-10-26T14:04:49Z</time>
      </trkpt>
      <trkpt lat="48.22063" lon="7.11046">
        <ele>728.34</ele>
        <time>2017-10-26T14:05:01Z</time>
      </trkpt>
      <trkpt lat="48.22059" lon="7.11032">
        <ele>727.37</ele>
        <time>2017-10-26T14:05:12Z</time>
      </trkpt>
      <trkpt lat="48.22055" lon="7.1102">
        <ele>725.93</ele>
        <time>2017-10-26T14:05:22Z</time>
      </trkpt>
      <trkpt lat="48.22051" lon="7.11004">
        <ele>724.01</ele>
        <time>2017-10-26T14:05:32Z</time>
      </trkpt>
      <trkpt lat="48.22045" lon="7.10988">
        <ele>722.57</ele>
        <time>2017-10-26T14:05:43Z</time>
      </trkpt>
      <trkpt lat="48.22044" lon="7.10973">
        <ele>721.13</ele>
        <time>2017-10-26T14:05:55Z</time>
      </trkpt>
      <trkpt lat="48.22035" lon="7.10959">
        <ele>719.68</ele>
        <time>2017-10-26T14:06:06Z</time>
      </trkpt>
      <trkpt lat="48.22031" lon="7.10944">
        <ele>717.76</ele>
        <time>2017-10-26T14:06:18Z</time>
      </trkpt>
      <trkpt lat="48.2203" lon="7.10929">
        <ele>715.84</ele>
        <time>2017-10-26T14:06:30Z</time>
      </trkpt>
      <trkpt lat="48.22035" lon="7.1091">
        <ele>713.44</ele>
        <time>2017-10-26T14:06:44Z</time>
      </trkpt>
      <trkpt lat="48.2203" lon="7.10899">
        <ele>711.03</ele>
        <time>2017-10-26T14:06:59Z</time>
      </trkpt>
      <trkpt lat="48.2203" lon="7.10884">
        <ele>709.59</ele>
        <time>2017-10-26T14:07:11Z</time>
      </trkpt>
      <trkpt lat="48.22027" lon="7.10871">
        <ele>708.15</ele>
        <time>2017-10-26T14:07:23Z</time>
      </trkpt>
      <trkpt lat="48.22022" lon="7.10857">
        <ele>706.71</ele>
        <time>2017-10-26T14:07:35Z</time>
      </trkpt>
      <trkpt lat="48.22019" lon="7.10843">
        <ele>704.78</ele>
        <time>2017-10-26T14:07:50Z</time>
      </trkpt>
      <trkpt lat="48.22013" lon="7.10828">
        <ele>703.82</ele>
        <time>2017-10-26T14:08:02Z</time>
      </trkpt>
      <trkpt lat="48.22009" lon="7.10814">
        <ele>701.9</ele>
        <time>2017-10-26T14:08:15Z</time>
      </trkpt>
      <trkpt lat="48.22004" lon="7.10798">
        <ele>700.46</ele>
        <time>2017-10-26T14:08:27Z</time>
      </trkpt>
      <trkpt lat="48.22009" lon="7.10786">
        <ele>699.98</ele>
        <time>2017-10-26T14:08:34Z</time>
      </trkpt>
      <trkpt lat="48.22017" lon="7.10773">
        <ele>699.02</ele>
        <time>2017-10-26T14:08:43Z</time>
      </trkpt>
      <trkpt lat="48.22039" lon="7.1075">
        <ele>698.53</ele>
        <time>2017-10-26T14:08:50Z</time>
      </trkpt>
      <trkpt lat="48.22043" lon="7.10732">
        <ele>696.13</ele>
        <time>2017-10-26T14:09:04Z</time>
      </trkpt>
      <trkpt lat="48.22042" lon="7.10717">
        <ele>695.17</ele>
        <time>2017-10-26T14:09:16Z</time>
      </trkpt>
      <trkpt lat="48.22043" lon="7.107">
        <ele>694.21</ele>
        <time>2017-10-26T14:09:29Z</time>
      </trkpt>
      <trkpt lat="48.22024" lon="7.10661">
        <ele>693.25</ele>
        <time>2017-10-26T14:10:07Z</time>
      </trkpt>
      <trkpt lat="48.22015" lon="7.10661">
        <ele>691.81</ele>
        <time>2017-10-26T14:10:41Z</time>
      </trkpt>
      <trkpt lat="48.22015" lon="7.10652">
        <ele>690.84</ele>
        <time>2017-10-26T14:10:56Z</time>
      </trkpt>
      <trkpt lat="48.22015" lon="7.10649">
        <ele>689.88</ele>
        <time>2017-10-26T14:13:01Z</time>
      </trkpt>
      <trkpt lat="48.22026" lon="7.10635">
        <ele>690.84</ele>
        <time>2017-10-26T14:13:18Z</time>
      </trkpt>
      <trkpt lat="48.22016" lon="7.10621">
        <ele>692.29</ele>
        <time>2017-10-26T14:13:32Z</time>
      </trkpt>
      <trkpt lat="48.22013" lon="7.10609">
        <ele>694.21</ele>
        <time>2017-10-26T14:13:46Z</time>
      </trkpt>
      <trkpt lat="48.22012" lon="7.10596">
        <ele>695.65</ele>
        <time>2017-10-26T14:13:57Z</time>
      </trkpt>
      <trkpt lat="48.22006" lon="7.10583">
        <ele>697.09</ele>
        <time>2017-10-26T14:14:11Z</time>
      </trkpt>
      <trkpt lat="48.22004" lon="7.10568">
        <ele>699.02</ele>
        <time>2017-10-26T14:14:25Z</time>
      </trkpt>
      <trkpt lat="48.21997" lon="7.10558">
        <ele>700.94</ele>
        <time>2017-10-26T14:14:39Z</time>
      </trkpt>
      <trkpt lat="48.21995" lon="7.1054">
        <ele>702.86</ele>
        <time>2017-10-26T14:14:54Z</time>
      </trkpt>
      <trkpt lat="48.21996" lon="7.10524">
        <ele>704.3</ele>
        <time>2017-10-26T14:15:07Z</time>
      </trkpt>
      <trkpt lat="48.21994" lon="7.1051">
        <ele>705.26</ele>
        <time>2017-10-26T14:15:20Z</time>
      </trkpt>
      <trkpt lat="48.21994" lon="7.10496">
        <ele>706.23</ele>
        <time>2017-10-26T14:15:33Z</time>
      </trkpt>
      <trkpt lat="48.21996" lon="7.10481">
        <ele>707.19</ele>
        <time>2017-10-26T14:15:46Z</time>
      </trkpt>
      <trkpt lat="48.22005" lon="7.10461">
        <ele>708.15</ele>
        <time>2017-10-26T14:15:58Z</time>
      </trkpt>
      <trkpt lat="48.22009" lon="7.10448">
        <ele>708.15</ele>
        <time>2017-10-26T14:16:06Z</time>
      </trkpt>
      <trkpt lat="48.22015" lon="7.10434">
        <ele>709.11</ele>
        <time>2017-10-26T14:16:14Z</time>
      </trkpt>
      <trkpt lat="48.22025" lon="7.1042">
        <ele>709.59</ele>
        <time>2017-10-26T14:16:22Z</time>
      </trkpt>
      <trkpt lat="48.22034" lon="7.10402">
        <ele>710.55</ele>
        <time>2017-10-26T14:16:31Z</time>
      </trkpt>
      <trkpt lat="48.22042" lon="7.10386">
        <ele>711.03</ele>
        <time>2017-10-26T14:16:40Z</time>
      </trkpt>
      <trkpt lat="48.22052" lon="7.10369">
        <ele>711.51</ele>
        <time>2017-10-26T14:16:49Z</time>
      </trkpt>
      <trkpt lat="48.2206" lon="7.10353">
        <ele>711.99</ele>
        <time>2017-10-26T14:16:59Z</time>
      </trkpt>
      <trkpt lat="48.22066" lon="7.10334">
        <ele>712.95</ele>
        <time>2017-10-26T14:17:11Z</time>
      </trkpt>
      <trkpt lat="48.22069" lon="7.10316">
        <ele>713.92</ele>
        <time>2017-10-26T14:17:24Z</time>
      </trkpt>
      <trkpt lat="48.22068" lon="7.103">
        <ele>714.4</ele>
        <time>2017-10-26T14:17:36Z</time>
      </trkpt>
      <trkpt lat="48.22073" lon="7.10283">
        <ele>715.36</ele>
        <time>2017-10-26T14:17:47Z</time>
      </trkpt>
      <trkpt lat="48.22076" lon="7.1027">
        <ele>716.32</ele>
        <time>2017-10-26T14:17:56Z</time>
      </trkpt>
      <trkpt lat="48.2208" lon="7.10254">
        <ele>717.28</ele>
        <time>2017-10-26T14:18:08Z</time>
      </trkpt>
      <trkpt lat="48.22089" lon="7.1024">
        <ele>718.24</ele>
        <time>2017-10-26T14:18:18Z</time>
      </trkpt>
      <trkpt lat="48.22099" lon="7.10225">
        <ele>719.2</ele>
        <time>2017-10-26T14:18:29Z</time>
      </trkpt>
      <trkpt lat="48.22103" lon="7.10206">
        <ele>721.13</ele>
        <time>2017-10-26T14:18:46Z</time>
      </trkpt>
      <trkpt lat="48.22112" lon="7.10191">
        <ele>722.57</ele>
        <time>2017-10-26T14:19:00Z</time>
      </trkpt>
      <trkpt lat="48.2212" lon="7.10178">
        <ele>723.53</ele>
        <time>2017-10-26T14:19:13Z</time>
      </trkpt>
      <trkpt lat="48.22135" lon="7.10168">
        <ele>725.45</ele>
        <time>2017-10-26T14:19:27Z</time>
      </trkpt>
      <trkpt lat="48.22146" lon="7.10168">
        <ele>726.41</ele>
        <time>2017-10-26T14:19:39Z</time>
      </trkpt>
      <trkpt lat="48.22183" lon="7.10152">
        <ele>727.37</ele>
        <time>2017-10-26T14:19:50Z</time>
      </trkpt>
      <trkpt lat="48.22193" lon="7.1016">
        <ele>728.34</ele>
        <time>2017-10-26T14:20:00Z</time>
      </trkpt>
      <trkpt lat="48.22198" lon="7.10168">
        <ele>728.82</ele>
        <time>2017-10-26T14:20:10Z</time>
      </trkpt>
      <trkpt lat="48.22203" lon="7.10179">
        <ele>729.3</ele>
        <time>2017-10-26T14:20:19Z</time>
      </trkpt>
      <trkpt lat="48.22209" lon="7.1019">
        <ele>730.26</ele>
        <time>2017-10-26T14:20:29Z</time>
      </trkpt>
      <trkpt lat="48.22214" lon="7.10202">
        <ele>730.74</ele>
        <time>2017-10-26T14:20:40Z</time>
      </trkpt>
      <trkpt lat="48.22219" lon="7.10213">
        <ele>731.7</ele>
        <time>2017-10-26T14:20:50Z</time>
      </trkpt>
      <trkpt lat="48.22224" lon="7.10226">
        <ele>732.66</ele>
        <time>2017-10-26T14:21:01Z</time>
      </trkpt>
      <trkpt lat="48.22229" lon="7.1024">
        <ele>733.14</ele>
        <time>2017-10-26T14:21:11Z</time>
      </trkpt>
      <trkpt lat="48.22236" lon="7.10248">
        <ele>734.1</ele>
        <time>2017-10-26T14:21:20Z</time>
      </trkpt>
      <trkpt lat="48.22242" lon="7.10259">
        <ele>734.58</ele>
        <time>2017-10-26T14:21:30Z</time>
      </trkpt>
      <trkpt lat="48.22249" lon="7.10267">
        <ele>735.07</ele>
        <time>2017-10-26T14:21:42Z</time>
      </trkpt>
      <trkpt lat="48.22251" lon="7.10274">
        <ele>735.07</ele>
        <time>2017-10-26T14:22:13Z</time>
      </trkpt>
      <trkpt lat="48.22259" lon="7.10271">
        <ele>735.55</ele>
        <time>2017-10-26T14:22:24Z</time>
      </trkpt>
      <trkpt lat="48.22267" lon="7.10266">
        <ele>736.51</ele>
        <time>2017-10-26T14:22:35Z</time>
      </trkpt>
      <trkpt lat="48.22275" lon="7.10256">
        <ele>737.47</ele>
        <time>2017-10-26T14:22:47Z</time>
      </trkpt>
      <trkpt lat="48.22284" lon="7.10245">
        <ele>738.91</ele>
        <time>2017-10-26T14:23:02Z</time>
      </trkpt>
      <trkpt lat="48.22294" lon="7.10234">
        <ele>739.87</ele>
        <time>2017-10-26T14:23:14Z</time>
      </trkpt>
      <trkpt lat="48.22301" lon="7.10226">
        <ele>740.35</ele>
        <time>2017-10-26T14:23:25Z</time>
      </trkpt>
      <trkpt lat="48.22312" lon="7.10213">
        <ele>741.31</ele>
        <time>2017-10-26T14:23:36Z</time>
      </trkpt>
      <trkpt lat="48.22321" lon="7.10203">
        <ele>741.79</ele>
        <time>2017-10-26T14:23:49Z</time>
      </trkpt>
      <trkpt lat="48.22327" lon="7.10194">
        <ele>742.76</ele>
        <time>2017-10-26T14:24:01Z</time>
      </trkpt>
      <trkpt lat="48.22334" lon="7.10183">
        <ele>743.24</ele>
        <time>2017-10-26T14:24:12Z</time>
      </trkpt>
      <trkpt lat="48.22342" lon="7.10171">
        <ele>744.2</ele>
        <time>2017-10-26T14:24:21Z</time>
      </trkpt>
      <trkpt lat="48.22348" lon="7.10158">
        <ele>744.68</ele>
        <time>2017-10-26T14:24:31Z</time>
      </trkpt>
      <trkpt lat="48.22353" lon="7.10144">
        <ele>745.64</ele>
        <time>2017-10-26T14:24:41Z</time>
      </trkpt>
      <trkpt lat="48.22358" lon="7.10129">
        <ele>746.12</ele>
        <time>2017-10-26T14:24:51Z</time>
      </trkpt>
      <trkpt lat="48.22362" lon="7.10117">
        <ele>746.12</ele>
        <time>2017-10-26T14:25:02Z</time>
      </trkpt>
      <trkpt lat="48.22365" lon="7.10103">
        <ele>747.08</ele>
        <time>2017-10-26T14:25:14Z</time>
      </trkpt>
      <trkpt lat="48.22368" lon="7.1009">
        <ele>747.08</ele>
        <time>2017-10-26T14:25:26Z</time>
      </trkpt>
      <trkpt lat="48.22374" lon="7.10075">
        <ele>748.04</ele>
        <time>2017-10-26T14:25:36Z</time>
      </trkpt>
      <trkpt lat="48.2238" lon="7.10064">
        <ele>749</ele>
        <time>2017-10-26T14:25:46Z</time>
      </trkpt>
      <trkpt lat="48.22386" lon="7.10051">
        <ele>749.49</ele>
        <time>2017-10-26T14:25:55Z</time>
      </trkpt>
      <trkpt lat="48.22394" lon="7.10036">
        <ele>749.97</ele>
        <time>2017-10-26T14:26:05Z</time>
      </trkpt>
      <trkpt lat="48.22402" lon="7.10022">
        <ele>750.45</ele>
        <time>2017-10-26T14:26:17Z</time>
      </trkpt>
      <trkpt lat="48.22407" lon="7.10008">
        <ele>751.41</ele>
        <time>2017-10-26T14:26:28Z</time>
      </trkpt>
      <trkpt lat="48.22414" lon="7.09994">
        <ele>751.89</ele>
        <time>2017-10-26T14:26:39Z</time>
      </trkpt>
      <trkpt lat="48.2242" lon="7.09982">
        <ele>752.85</ele>
        <time>2017-10-26T14:26:51Z</time>
      </trkpt>
      <trkpt lat="48.22426" lon="7.0997">
        <ele>754.29</ele>
        <time>2017-10-26T14:27:06Z</time>
      </trkpt>
      <trkpt lat="48.22435" lon="7.09957">
        <ele>755.73</ele>
        <time>2017-10-26T14:27:22Z</time>
      </trkpt>
      <trkpt lat="48.22442" lon="7.09947">
        <ele>756.21</ele>
        <time>2017-10-26T14:27:33Z</time>
      </trkpt>
      <trkpt lat="48.22448" lon="7.0994">
        <ele>756.69</ele>
        <time>2017-10-26T14:27:42Z</time>
      </trkpt>
      <trkpt lat="48.22456" lon="7.09932">
        <ele>757.66</ele>
        <time>2017-10-26T14:27:53Z</time>
      </trkpt>
      <trkpt lat="48.22465" lon="7.09923">
        <ele>758.14</ele>
        <time>2017-10-26T14:28:03Z</time>
      </trkpt>
      <trkpt lat="48.22474" lon="7.09915">
        <ele>759.1</ele>
        <time>2017-10-26T14:28:12Z</time>
      </trkpt>
      <trkpt lat="48.22484" lon="7.09909">
        <ele>760.06</ele>
        <time>2017-10-26T14:28:22Z</time>
      </trkpt>
      <trkpt lat="48.22493" lon="7.09903">
        <ele>761.02</ele>
        <time>2017-10-26T14:28:31Z</time>
      </trkpt>
      <trkpt lat="48.2252" lon="7.09883">
        <ele>761.5</ele>
        <time>2017-10-26T14:28:40Z</time>
      </trkpt>
      <trkpt lat="48.22534" lon="7.09876">
        <ele>761.98</ele>
        <time>2017-10-26T14:28:49Z</time>
      </trkpt>
      <trkpt lat="48.22544" lon="7.09872">
        <ele>762.46</ele>
        <time>2017-10-26T14:28:58Z</time>
      </trkpt>
      <trkpt lat="48.22556" lon="7.09866">
        <ele>762.94</ele>
        <time>2017-10-26T14:29:08Z</time>
      </trkpt>
      <trkpt lat="48.22567" lon="7.09862">
        <ele>763.42</ele>
        <time>2017-10-26T14:29:18Z</time>
      </trkpt>
      <trkpt lat="48.22577" lon="7.09858">
        <ele>763.9</ele>
        <time>2017-10-26T14:29:29Z</time>
      </trkpt>
      <trkpt lat="48.22589" lon="7.09852">
        <ele>764.87</ele>
        <time>2017-10-26T14:29:41Z</time>
      </trkpt>
      <trkpt lat="48.22598" lon="7.09845">
        <ele>765.35</ele>
        <time>2017-10-26T14:29:52Z</time>
      </trkpt>
      <trkpt lat="48.22608" lon="7.09839">
        <ele>765.83</ele>
        <time>2017-10-26T14:30:02Z</time>
      </trkpt>
      <trkpt lat="48.22617" lon="7.09834">
        <ele>766.79</ele>
        <time>2017-10-26T14:30:13Z</time>
      </trkpt>
      <trkpt lat="48.22625" lon="7.09829">
        <ele>767.75</ele>
        <time>2017-10-26T14:30:30Z</time>
      </trkpt>
      <trkpt lat="48.2263" lon="7.09829">
        <ele>768.71</ele>
        <time>2017-10-26T14:30:51Z</time>
      </trkpt>
      <trkpt lat="48.22632" lon="7.09824">
        <ele>768.23</ele>
        <time>2017-10-26T14:31:25Z</time>
      </trkpt>
      <trkpt lat="48.22627" lon="7.09816">
        <ele>765.83</ele>
        <time>2017-10-26T14:35:15Z</time>
      </trkpt>
      <trkpt lat="48.22633" lon="7.09808">
        <ele>765.35</ele>
        <time>2017-10-26T14:35:40Z</time>
      </trkpt>
      <trkpt lat="48.22636" lon="7.09799">
        <ele>763.9</ele>
        <time>2017-10-26T14:35:51Z</time>
      </trkpt>
      <trkpt lat="48.22639" lon="7.09786">
        <ele>762.46</ele>
        <time>2017-10-26T14:36:02Z</time>
      </trkpt>
      <trkpt lat="48.22639" lon="7.09774">
        <ele>761.5</ele>
        <time>2017-10-26T14:36:14Z</time>
      </trkpt>
      <trkpt lat="48.22639" lon="7.09761">
        <ele>760.06</ele>
        <time>2017-10-26T14:36:25Z</time>
      </trkpt>
      <trkpt lat="48.22637" lon="7.09748">
        <ele>759.1</ele>
        <time>2017-10-26T14:36:36Z</time>
      </trkpt>
      <trkpt lat="48.22637" lon="7.09736">
        <ele>758.14</ele>
        <time>2017-10-26T14:36:47Z</time>
      </trkpt>
      <trkpt lat="48.22652" lon="7.09711">
        <ele>757.18</ele>
        <time>2017-10-26T14:37:01Z</time>
      </trkpt>
      <trkpt lat="48.22663" lon="7.09693">
        <ele>756.69</ele>
        <time>2017-10-26T14:37:13Z</time>
      </trkpt>
      <trkpt lat="48.22666" lon="7.09682">
        <ele>754.29</ele>
        <time>2017-10-26T14:37:24Z</time>
      </trkpt>
      <trkpt lat="48.22681" lon="7.0967">
        <ele>753.81</ele>
        <time>2017-10-26T14:37:51Z</time>
      </trkpt>
      <trkpt lat="48.22688" lon="7.0966">
        <ele>752.37</ele>
        <time>2017-10-26T14:38:05Z</time>
      </trkpt>
      <trkpt lat="48.22697" lon="7.09654">
        <ele>751.41</ele>
        <time>2017-10-26T14:38:21Z</time>
      </trkpt>
      <trkpt lat="48.22706" lon="7.0965">
        <ele>750.45</ele>
        <time>2017-10-26T14:38:31Z</time>
      </trkpt>
      <trkpt lat="48.22716" lon="7.09646">
        <ele>749</ele>
        <time>2017-10-26T14:38:53Z</time>
      </trkpt>
      <trkpt lat="48.22725" lon="7.09647">
        <ele>748.04</ele>
        <time>2017-10-26T14:39:03Z</time>
      </trkpt>
      <trkpt lat="48.22735" lon="7.09646">
        <ele>747.56</ele>
        <time>2017-10-26T14:39:13Z</time>
      </trkpt>
      <trkpt lat="48.22745" lon="7.09648">
        <ele>745.64</ele>
        <time>2017-10-26T14:39:22Z</time>
      </trkpt>
      <trkpt lat="48.22755" lon="7.09651">
        <ele>744.68</ele>
        <time>2017-10-26T14:39:32Z</time>
      </trkpt>
      <trkpt lat="48.22765" lon="7.09655">
        <ele>743.24</ele>
        <time>2017-10-26T14:39:41Z</time>
      </trkpt>
      <trkpt lat="48.22774" lon="7.09657">
        <ele>742.28</ele>
        <time>2017-10-26T14:39:48Z</time>
      </trkpt>
      <trkpt lat="48.22783" lon="7.0966">
        <ele>741.31</ele>
        <time>2017-10-26T14:39:56Z</time>
      </trkpt>
      <trkpt lat="48.22792" lon="7.0966">
        <ele>739.87</ele>
        <time>2017-10-26T14:40:06Z</time>
      </trkpt>
      <trkpt lat="48.22802" lon="7.09663">
        <ele>738.91</ele>
        <time>2017-10-26T14:40:15Z</time>
      </trkpt>
      <trkpt lat="48.22812" lon="7.09664">
        <ele>738.43</ele>
        <time>2017-10-26T14:40:24Z</time>
      </trkpt>
      <trkpt lat="48.22821" lon="7.09665">
        <ele>736.99</ele>
        <time>2017-10-26T14:40:34Z</time>
      </trkpt>
      <trkpt lat="48.22832" lon="7.09665">
        <ele>735.55</ele>
        <time>2017-10-26T14:40:43Z</time>
      </trkpt>
      <trkpt lat="48.22842" lon="7.0967">
        <ele>734.58</ele>
        <time>2017-10-26T14:40:52Z</time>
      </trkpt>
      <trkpt lat="48.22852" lon="7.09671">
        <ele>733.14</ele>
        <time>2017-10-26T14:41:01Z</time>
      </trkpt>
      <trkpt lat="48.22862" lon="7.09672">
        <ele>732.18</ele>
        <time>2017-10-26T14:41:10Z</time>
      </trkpt>
      <trkpt lat="48.22871" lon="7.09674">
        <ele>731.7</ele>
        <time>2017-10-26T14:41:19Z</time>
      </trkpt>
      <trkpt lat="48.22882" lon="7.09676">
        <ele>730.26</ele>
        <time>2017-10-26T14:41:28Z</time>
      </trkpt>
      <trkpt lat="48.22891" lon="7.09677">
        <ele>729.3</ele>
        <time>2017-10-26T14:41:37Z</time>
      </trkpt>
      <trkpt lat="48.22901" lon="7.09677">
        <ele>728.34</ele>
        <time>2017-10-26T14:41:46Z</time>
      </trkpt>
      <trkpt lat="48.22911" lon="7.09673">
        <ele>727.37</ele>
        <time>2017-10-26T14:41:54Z</time>
      </trkpt>
      <trkpt lat="48.22921" lon="7.0967">
        <ele>726.41</ele>
        <time>2017-10-26T14:42:02Z</time>
      </trkpt>
      <trkpt lat="48.2293" lon="7.09666">
        <ele>724.97</ele>
        <time>2017-10-26T14:42:10Z</time>
      </trkpt>
      <trkpt lat="48.22939" lon="7.09662">
        <ele>724.01</ele>
        <time>2017-10-26T14:42:19Z</time>
      </trkpt>
      <trkpt lat="48.22948" lon="7.09658">
        <ele>723.05</ele>
        <time>2017-10-26T14:42:27Z</time>
      </trkpt>
      <trkpt lat="48.22957" lon="7.09654">
        <ele>721.61</ele>
        <time>2017-10-26T14:42:35Z</time>
      </trkpt>
      <trkpt lat="48.22966" lon="7.0965">
        <ele>720.65</ele>
        <time>2017-10-26T14:42:43Z</time>
      </trkpt>
      <trkpt lat="48.22975" lon="7.09645">
        <ele>719.2</ele>
        <time>2017-10-26T14:42:52Z</time>
      </trkpt>
      <trkpt lat="48.22985" lon="7.09641">
        <ele>718.24</ele>
        <time>2017-10-26T14:43:01Z</time>
      </trkpt>
      <trkpt lat="48.22994" lon="7.09637">
        <ele>717.28</ele>
        <time>2017-10-26T14:43:09Z</time>
      </trkpt>
      <trkpt lat="48.23003" lon="7.09633">
        <ele>715.84</ele>
        <time>2017-10-26T14:43:17Z</time>
      </trkpt>
      <trkpt lat="48.23013" lon="7.09626">
        <ele>714.88</ele>
        <time>2017-10-26T14:43:26Z</time>
      </trkpt>
      <trkpt lat="48.23022" lon="7.09619">
        <ele>713.44</ele>
        <time>2017-10-26T14:43:34Z</time>
      </trkpt>
      <trkpt lat="48.2303" lon="7.09612">
        <ele>712.47</ele>
        <time>2017-10-26T14:43:43Z</time>
      </trkpt>
      <trkpt lat="48.23038" lon="7.09605">
        <ele>711.51</ele>
        <time>2017-10-26T14:43:52Z</time>
      </trkpt>
      <trkpt lat="48.23046" lon="7.09598">
        <ele>710.55</ele>
        <time>2017-10-26T14:44:01Z</time>
      </trkpt>
      <trkpt lat="48.23054" lon="7.09591">
        <ele>709.59</ele>
        <time>2017-10-26T14:44:10Z</time>
      </trkpt>
      <trkpt lat="48.23063" lon="7.09585">
        <ele>708.15</ele>
        <time>2017-10-26T14:44:20Z</time>
      </trkpt>
      <trkpt lat="48.23072" lon="7.09581">
        <ele>707.19</ele>
        <time>2017-10-26T14:44:31Z</time>
      </trkpt>
      <trkpt lat="48.23081" lon="7.09579">
        <ele>705.75</ele>
        <time>2017-10-26T14:44:42Z</time>
      </trkpt>
      <trkpt lat="48.23083" lon="7.09586">
        <ele>706.23</ele>
        <time>2017-10-26T14:45:06Z</time>
      </trkpt>
      <trkpt lat="48.23085" lon="7.09573">
        <ele>705.26</ele>
        <time>2017-10-26T14:45:19Z</time>
      </trkpt>
      <trkpt lat="48.2309" lon="7.09561">
        <ele>704.78</ele>
        <time>2017-10-26T14:45:28Z</time>
      </trkpt>
      <trkpt lat="48.23096" lon="7.09549">
        <ele>703.82</ele>
        <time>2017-10-26T14:45:38Z</time>
      </trkpt>
      <trkpt lat="48.23095" lon="7.09534">
        <ele>702.86</ele>
        <time>2017-10-26T14:45:49Z</time>
      </trkpt>
      <trkpt lat="48.23095" lon="7.0952">
        <ele>702.38</ele>
        <time>2017-10-26T14:45:57Z</time>
      </trkpt>
      <trkpt lat="48.23093" lon="7.09508">
        <ele>701.42</ele>
        <time>2017-10-26T14:46:05Z</time>
      </trkpt>
      <trkpt lat="48.23093" lon="7.09494">
        <ele>700.94</ele>
        <time>2017-10-26T14:46:13Z</time>
      </trkpt>
      <trkpt lat="48.23093" lon="7.0948">
        <ele>700.46</ele>
        <time>2017-10-26T14:46:21Z</time>
      </trkpt>
      <trkpt lat="48.23096" lon="7.09467">
        <ele>699.98</ele>
        <time>2017-10-26T14:46:29Z</time>
      </trkpt>
      <trkpt lat="48.23099" lon="7.09454">
        <ele>699.98</ele>
        <time>2017-10-26T14:46:37Z</time>
      </trkpt>
      <trkpt lat="48.23104" lon="7.09441">
        <ele>699.02</ele>
        <time>2017-10-26T14:46:45Z</time>
      </trkpt>
      <trkpt lat="48.23109" lon="7.09428">
        <ele>699.02</ele>
        <time>2017-10-26T14:46:54Z</time>
      </trkpt>
      <trkpt lat="48.23115" lon="7.09415">
        <ele>698.53</ele>
        <time>2017-10-26T14:47:03Z</time>
      </trkpt>
      <trkpt lat="48.23121" lon="7.09402">
        <ele>698.53</ele>
        <time>2017-10-26T14:47:12Z</time>
      </trkpt>
      <trkpt lat="48.23125" lon="7.09389">
        <ele>698.05</ele>
        <time>2017-10-26T14:47:20Z</time>
      </trkpt>
      <trkpt lat="48.23127" lon="7.09374">
        <ele>698.05</ele>
        <time>2017-10-26T14:47:29Z</time>
      </trkpt>
      <trkpt lat="48.23127" lon="7.09359">
        <ele>698.05</ele>
        <time>2017-10-26T14:47:37Z</time>
      </trkpt>
      <trkpt lat="48.23129" lon="7.09346">
        <ele>697.57</ele>
        <time>2017-10-26T14:47:45Z</time>
      </trkpt>
      <trkpt lat="48.23134" lon="7.09335">
        <ele>697.57</ele>
        <time>2017-10-26T14:47:53Z</time>
      </trkpt>
      <trkpt lat="48.23141" lon="7.09324">
        <ele>697.09</ele>
        <time>2017-10-26T14:48:01Z</time>
      </trkpt>
      <trkpt lat="48.2315" lon="7.09317">
        <ele>697.09</ele>
        <time>2017-10-26T14:48:09Z</time>
      </trkpt>
      <trkpt lat="48.2316" lon="7.09311">
        <ele>697.57</ele>
        <time>2017-10-26T14:48:18Z</time>
      </trkpt>
      <trkpt lat="48.23168" lon="7.09306">
        <ele>697.09</ele>
        <time>2017-10-26T14:48:27Z</time>
      </trkpt>
      <trkpt lat="48.23177" lon="7.09302">
        <ele>697.09</ele>
        <time>2017-10-26T14:48:39Z</time>
      </trkpt>
      <trkpt lat="48.23177" lon="7.09303">
        <ele>696.61</ele>
        <time>2017-10-26T14:49:24Z</time>
      </trkpt>
      <trkpt lat="48.23176" lon="7.09303">
        <ele>695.65</ele>
        <time>2017-10-26T14:51:01Z</time>
      </trkpt>
      <trkpt lat="48.23167" lon="7.09305">
        <ele>695.65</ele>
        <time>2017-10-26T14:51:20Z</time>
      </trkpt>
      <trkpt lat="48.23157" lon="7.0931">
        <ele>695.65</ele>
        <time>2017-10-26T14:51:29Z</time>
      </trkpt>
      <trkpt lat="48.23148" lon="7.09316">
        <ele>695.17</ele>
        <time>2017-10-26T14:51:37Z</time>
      </trkpt>
      <trkpt lat="48.2314" lon="7.09325">
        <ele>695.17</ele>
        <time>2017-10-26T14:51:46Z</time>
      </trkpt>
      <trkpt lat="48.23133" lon="7.09335">
        <ele>695.17</ele>
        <time>2017-10-26T14:51:54Z</time>
      </trkpt>
      <trkpt lat="48.23129" lon="7.09349">
        <ele>695.17</ele>
        <time>2017-10-26T14:52:03Z</time>
      </trkpt>
      <trkpt lat="48.23127" lon="7.09365">
        <ele>695.65</ele>
        <time>2017-10-26T14:52:12Z</time>
      </trkpt>
      <trkpt lat="48.23126" lon="7.0938">
        <ele>695.65</ele>
        <time>2017-10-26T14:52:21Z</time>
      </trkpt>
      <trkpt lat="48.23124" lon="7.09393">
        <ele>695.65</ele>
        <time>2017-10-26T14:52:30Z</time>
      </trkpt>
      <trkpt lat="48.2312" lon="7.09406">
        <ele>695.65</ele>
        <time>2017-10-26T14:52:39Z</time>
      </trkpt>
      <trkpt lat="48.23114" lon="7.09417">
        <ele>695.65</ele>
        <time>2017-10-26T14:52:48Z</time>
      </trkpt>
      <trkpt lat="48.23109" lon="7.0943">
        <ele>695.65</ele>
        <time>2017-10-26T14:52:57Z</time>
      </trkpt>
      <trkpt lat="48.23104" lon="7.09442">
        <ele>696.13</ele>
        <time>2017-10-26T14:53:07Z</time>
      </trkpt>
      <trkpt lat="48.231" lon="7.09455">
        <ele>696.13</ele>
        <time>2017-10-26T14:53:16Z</time>
      </trkpt>
      <trkpt lat="48.23096" lon="7.09468">
        <ele>696.61</ele>
        <time>2017-10-26T14:53:25Z</time>
      </trkpt>
      <trkpt lat="48.23093" lon="7.09482">
        <ele>697.09</ele>
        <time>2017-10-26T14:53:35Z</time>
      </trkpt>
      <trkpt lat="48.23091" lon="7.09497">
        <ele>697.09</ele>
        <time>2017-10-26T14:53:45Z</time>
      </trkpt>
      <trkpt lat="48.23092" lon="7.09511">
        <ele>697.57</ele>
        <time>2017-10-26T14:53:55Z</time>
      </trkpt>
      <trkpt lat="48.23094" lon="7.09525">
        <ele>698.05</ele>
        <time>2017-10-26T14:54:05Z</time>
      </trkpt>
      <trkpt lat="48.23095" lon="7.09539">
        <ele>699.02</ele>
        <time>2017-10-26T14:54:16Z</time>
      </trkpt>
      <trkpt lat="48.23096" lon="7.09552">
        <ele>699.98</ele>
        <time>2017-10-26T14:54:31Z</time>
      </trkpt>
      <trkpt lat="48.2309" lon="7.0956">
        <ele>699.98</ele>
        <time>2017-10-26T14:54:45Z</time>
      </trkpt>
      <trkpt lat="48.23087" lon="7.09574">
        <ele>700.46</ele>
        <time>2017-10-26T14:54:56Z</time>
      </trkpt>
      <trkpt lat="48.23082" lon="7.09586">
        <ele>701.42</ele>
        <time>2017-10-26T14:55:08Z</time>
      </trkpt>
      <trkpt lat="48.23088" lon="7.09579">
        <ele>700.46</ele>
        <time>2017-10-26T14:55:37Z</time>
      </trkpt>
      <trkpt lat="48.23097" lon="7.09585">
        <ele>699.5</ele>
        <time>2017-10-26T14:55:48Z</time>
      </trkpt>
      <trkpt lat="48.23103" lon="7.09594">
        <ele>698.53</ele>
        <time>2017-10-26T14:55:58Z</time>
      </trkpt>
      <trkpt lat="48.23109" lon="7.09604">
        <ele>697.09</ele>
        <time>2017-10-26T14:56:08Z</time>
      </trkpt>
      <trkpt lat="48.23114" lon="7.09615">
        <ele>696.13</ele>
        <time>2017-10-26T14:56:18Z</time>
      </trkpt>
      <trkpt lat="48.23119" lon="7.09627">
        <ele>695.17</ele>
        <time>2017-10-26T14:56:28Z</time>
      </trkpt>
      <trkpt lat="48.23123" lon="7.0964">
        <ele>694.21</ele>
        <time>2017-10-26T14:56:37Z</time>
      </trkpt>
      <trkpt lat="48.23127" lon="7.09653">
        <ele>693.25</ele>
        <time>2017-10-26T14:56:47Z</time>
      </trkpt>
      <trkpt lat="48.23132" lon="7.09665">
        <ele>691.81</ele>
        <time>2017-10-26T14:56:57Z</time>
      </trkpt>
      <trkpt lat="48.23136" lon="7.09679">
        <ele>690.84</ele>
        <time>2017-10-26T14:57:07Z</time>
      </trkpt>
      <trkpt lat="48.2314" lon="7.09694">
        <ele>689.88</ele>
        <time>2017-10-26T14:57:17Z</time>
      </trkpt>
      <trkpt lat="48.23145" lon="7.09709">
        <ele>688.92</ele>
        <time>2017-10-26T14:57:27Z</time>
      </trkpt>
      <trkpt lat="48.23148" lon="7.09723">
        <ele>688.44</ele>
        <time>2017-10-26T14:57:36Z</time>
      </trkpt>
      <trkpt lat="48.23151" lon="7.09736">
        <ele>687.48</ele>
        <time>2017-10-26T14:57:45Z</time>
      </trkpt>
      <trkpt lat="48.23153" lon="7.0975">
        <ele>687</ele>
        <time>2017-10-26T14:57:55Z</time>
      </trkpt>
      <trkpt lat="48.23155" lon="7.09762">
        <ele>686.04</ele>
        <time>2017-10-26T14:58:04Z</time>
      </trkpt>
      <trkpt lat="48.23157" lon="7.09776">
        <ele>685.08</ele>
        <time>2017-10-26T14:58:13Z</time>
      </trkpt>
      <trkpt lat="48.23158" lon="7.09791">
        <ele>684.6</ele>
        <time>2017-10-26T14:58:23Z</time>
      </trkpt>
      <trkpt lat="48.23158" lon="7.09807">
        <ele>683.63</ele>
        <time>2017-10-26T14:58:33Z</time>
      </trkpt>
      <trkpt lat="48.23158" lon="7.09821">
        <ele>683.15</ele>
        <time>2017-10-26T14:58:43Z</time>
      </trkpt>
      <trkpt lat="48.23159" lon="7.09834">
        <ele>682.19</ele>
        <time>2017-10-26T14:58:52Z</time>
      </trkpt>
      <trkpt lat="48.23158" lon="7.09848">
        <ele>681.23</ele>
        <time>2017-10-26T14:59:01Z</time>
      </trkpt>
      <trkpt lat="48.23158" lon="7.09861">
        <ele>679.79</ele>
        <time>2017-10-26T14:59:12Z</time>
      </trkpt>
      <trkpt lat="48.23154" lon="7.09875">
        <ele>678.83</ele>
        <time>2017-10-26T14:59:22Z</time>
      </trkpt>
      <trkpt lat="48.23152" lon="7.09889">
        <ele>677.39</ele>
        <time>2017-10-26T14:59:33Z</time>
      </trkpt>
      <trkpt lat="48.23148" lon="7.09904">
        <ele>676.42</ele>
        <time>2017-10-26T14:59:44Z</time>
      </trkpt>
      <trkpt lat="48.23144" lon="7.09918">
        <ele>675.46</ele>
        <time>2017-10-26T14:59:55Z</time>
      </trkpt>
      <trkpt lat="48.23141" lon="7.09932">
        <ele>674.5</ele>
        <time>2017-10-26T15:00:06Z</time>
      </trkpt>
      <trkpt lat="48.23131" lon="7.09953">
        <ele>674.02</ele>
        <time>2017-10-26T15:00:17Z</time>
      </trkpt>
      <trkpt lat="48.2313" lon="7.09966">
        <ele>672.58</ele>
        <time>2017-10-26T15:00:27Z</time>
      </trkpt>
      <trkpt lat="48.23129" lon="7.09979">
        <ele>671.62</ele>
        <time>2017-10-26T15:00:37Z</time>
      </trkpt>
      <trkpt lat="48.23126" lon="7.09994">
        <ele>670.66</ele>
        <time>2017-10-26T15:00:47Z</time>
      </trkpt>
      <trkpt lat="48.23123" lon="7.10007">
        <ele>670.18</ele>
        <time>2017-10-26T15:00:56Z</time>
      </trkpt>
      <trkpt lat="48.23121" lon="7.10021">
        <ele>668.73</ele>
        <time>2017-10-26T15:01:06Z</time>
      </trkpt>
      <trkpt lat="48.23121" lon="7.10035">
        <ele>667.77</ele>
        <time>2017-10-26T15:01:16Z</time>
      </trkpt>
      <trkpt lat="48.2312" lon="7.10048">
        <ele>666.81</ele>
        <time>2017-10-26T15:01:26Z</time>
      </trkpt>
      <trkpt lat="48.23109" lon="7.10072">
        <ele>666.33</ele>
        <time>2017-10-26T15:01:40Z</time>
      </trkpt>
      <trkpt lat="48.23108" lon="7.10084">
        <ele>665.37</ele>
        <time>2017-10-26T15:01:50Z</time>
      </trkpt>
      <trkpt lat="48.23109" lon="7.10096">
        <ele>664.89</ele>
        <time>2017-10-26T15:02:00Z</time>
      </trkpt>
      <trkpt lat="48.23111" lon="7.10109">
        <ele>664.41</ele>
        <time>2017-10-26T15:02:09Z</time>
      </trkpt>
      <trkpt lat="48.23113" lon="7.10126">
        <ele>664.41</ele>
        <time>2017-10-26T15:02:23Z</time>
      </trkpt>
      <trkpt lat="48.23115" lon="7.10141">
        <ele>663.93</ele>
        <time>2017-10-26T15:02:32Z</time>
      </trkpt>
      <trkpt lat="48.23121" lon="7.1015">
        <ele>662.97</ele>
        <time>2017-10-26T15:02:41Z</time>
      </trkpt>
      <trkpt lat="48.23126" lon="7.10159">
        <ele>662.01</ele>
        <time>2017-10-26T15:02:51Z</time>
      </trkpt>
      <trkpt lat="48.23133" lon="7.10168">
        <ele>661.04</ele>
        <time>2017-10-26T15:03:01Z</time>
      </trkpt>
      <trkpt lat="48.2314" lon="7.10176">
        <ele>659.6</ele>
        <time>2017-10-26T15:03:11Z</time>
      </trkpt>
      <trkpt lat="48.23149" lon="7.1018">
        <ele>657.68</ele>
        <time>2017-10-26T15:03:21Z</time>
      </trkpt>
      <trkpt lat="48.23158" lon="7.10183">
        <ele>657.2</ele>
        <time>2017-10-26T15:03:30Z</time>
      </trkpt>
      <trkpt lat="48.23167" lon="7.10173">
        <ele>654.8</ele>
        <time>2017-10-26T15:03:42Z</time>
      </trkpt>
      <trkpt lat="48.23174" lon="7.1016">
        <ele>651.91</ele>
        <time>2017-10-26T15:03:55Z</time>
      </trkpt>
      <trkpt lat="48.23181" lon="7.10148">
        <ele>650.47</ele>
        <time>2017-10-26T15:04:05Z</time>
      </trkpt>
      <trkpt lat="48.23186" lon="7.10133">
        <ele>649.03</ele>
        <time>2017-10-26T15:04:15Z</time>
      </trkpt>
      <trkpt lat="48.2319" lon="7.1012">
        <ele>647.1</ele>
        <time>2017-10-26T15:04:26Z</time>
      </trkpt>
      <trkpt lat="48.23194" lon="7.10106">
        <ele>645.66</ele>
        <time>2017-10-26T15:04:37Z</time>
      </trkpt>
      <trkpt lat="48.23199" lon="7.10092">
        <ele>644.22</ele>
        <time>2017-10-26T15:04:48Z</time>
      </trkpt>
      <trkpt lat="48.23207" lon="7.1008">
        <ele>643.26</ele>
        <time>2017-10-26T15:04:58Z</time>
      </trkpt>
      <trkpt lat="48.23215" lon="7.10071">
        <ele>641.82</ele>
        <time>2017-10-26T15:05:08Z</time>
      </trkpt>
      <trkpt lat="48.23224" lon="7.1006">
        <ele>640.86</ele>
        <time>2017-10-26T15:05:20Z</time>
      </trkpt>
      <trkpt lat="48.23233" lon="7.10049">
        <ele>639.41</ele>
        <time>2017-10-26T15:05:30Z</time>
      </trkpt>
      <trkpt lat="48.23243" lon="7.10037">
        <ele>637.97</ele>
        <time>2017-10-26T15:05:43Z</time>
      </trkpt>
      <trkpt lat="48.23253" lon="7.10028">
        <ele>636.53</ele>
        <time>2017-10-26T15:05:54Z</time>
      </trkpt>
      <trkpt lat="48.23263" lon="7.10018">
        <ele>635.57</ele>
        <time>2017-10-26T15:06:04Z</time>
      </trkpt>
      <trkpt lat="48.23272" lon="7.10009">
        <ele>634.13</ele>
        <time>2017-10-26T15:06:14Z</time>
      </trkpt>
      <trkpt lat="48.2328" lon="7.10002">
        <ele>633.17</ele>
        <time>2017-10-26T15:06:25Z</time>
      </trkpt>
      <trkpt lat="48.23288" lon="7.09995">
        <ele>632.2</ele>
        <time>2017-10-26T15:06:36Z</time>
      </trkpt>
      <trkpt lat="48.23295" lon="7.09986">
        <ele>631.24</ele>
        <time>2017-10-26T15:06:49Z</time>
      </trkpt>
      <trkpt lat="48.23304" lon="7.09979">
        <ele>629.8</ele>
        <time>2017-10-26T15:07:23Z</time>
      </trkpt>
      <trkpt lat="48.2331" lon="7.09973">
        <ele>628.84</ele>
        <time>2017-10-26T15:07:48Z</time>
      </trkpt>
      <trkpt lat="48.23319" lon="7.09969">
        <ele>627.4</ele>
        <time>2017-10-26T15:07:57Z</time>
      </trkpt>
      <trkpt lat="48.23327" lon="7.09964">
        <ele>625.96</ele>
        <time>2017-10-26T15:08:06Z</time>
      </trkpt>
      <trkpt lat="48.23336" lon="7.09956">
        <ele>624.51</ele>
        <time>2017-10-26T15:08:15Z</time>
      </trkpt>
      <trkpt lat="48.23344" lon="7.0995">
        <ele>623.55</ele>
        <time>2017-10-26T15:08:24Z</time>
      </trkpt>
      <trkpt lat="48.23353" lon="7.09941">
        <ele>622.59</ele>
        <time>2017-10-26T15:08:34Z</time>
      </trkpt>
      <trkpt lat="48.23361" lon="7.09934">
        <ele>621.63</ele>
        <time>2017-10-26T15:08:44Z</time>
      </trkpt>
      <trkpt lat="48.23369" lon="7.09924">
        <ele>620.19</ele>
        <time>2017-10-26T15:08:54Z</time>
      </trkpt>
      <trkpt lat="48.23378" lon="7.09913">
        <ele>619.23</ele>
        <time>2017-10-26T15:09:04Z</time>
      </trkpt>
      <trkpt lat="48.23385" lon="7.09904">
        <ele>618.26</ele>
        <time>2017-10-26T15:09:13Z</time>
      </trkpt>
      <trkpt lat="48.23394" lon="7.09892">
        <ele>617.3</ele>
        <time>2017-10-26T15:09:23Z</time>
      </trkpt>
      <trkpt lat="48.23402" lon="7.09885">
        <ele>615.86</ele>
        <time>2017-10-26T15:09:34Z</time>
      </trkpt>
      <trkpt lat="48.23412" lon="7.09875">
        <ele>614.9</ele>
        <time>2017-10-26T15:09:54Z</time>
      </trkpt>
      <trkpt lat="48.2342" lon="7.09871">
        <ele>613.94</ele>
        <time>2017-10-26T15:10:03Z</time>
      </trkpt>
      <trkpt lat="48.23429" lon="7.09865">
        <ele>612.5</ele>
        <time>2017-10-26T15:10:13Z</time>
      </trkpt>
      <trkpt lat="48.23439" lon="7.09857">
        <ele>612.02</ele>
        <time>2017-10-26T15:10:28Z</time>
      </trkpt>
      <trkpt lat="48.23448" lon="7.09852">
        <ele>611.06</ele>
        <time>2017-10-26T15:10:38Z</time>
      </trkpt>
      <trkpt lat="48.23458" lon="7.09848">
        <ele>610.09</ele>
        <time>2017-10-26T15:10:48Z</time>
      </trkpt>
      <trkpt lat="48.23467" lon="7.09844">
        <ele>609.13</ele>
        <time>2017-10-26T15:10:58Z</time>
      </trkpt>
      <trkpt lat="48.2348" lon="7.09838">
        <ele>607.69</ele>
        <time>2017-10-26T15:11:11Z</time>
      </trkpt>
      <trkpt lat="48.2349" lon="7.0983">
        <ele>606.25</ele>
        <time>2017-10-26T15:11:24Z</time>
      </trkpt>
      <trkpt lat="48.23498" lon="7.09821">
        <ele>604.81</ele>
        <time>2017-10-26T15:11:36Z</time>
      </trkpt>
      <trkpt lat="48.23508" lon="7.09809">
        <ele>603.85</ele>
        <time>2017-10-26T15:11:49Z</time>
      </trkpt>
      <trkpt lat="48.23524" lon="7.09782">
        <ele>600.96</ele>
        <time>2017-10-26T15:12:19Z</time>
      </trkpt>
      <trkpt lat="48.23546" lon="7.09752">
        <ele>599.04</ele>
        <time>2017-10-26T15:12:55Z</time>
      </trkpt>
      <trkpt lat="48.23548" lon="7.0974">
        <ele>596.64</ele>
        <time>2017-10-26T15:13:11Z</time>
      </trkpt>
      <trkpt lat="48.23551" lon="7.09727">
        <ele>594.71</ele>
        <time>2017-10-26T15:13:24Z</time>
      </trkpt>
      <trkpt lat="48.23556" lon="7.09716">
        <ele>593.27</ele>
        <time>2017-10-26T15:13:34Z</time>
      </trkpt>
      <trkpt lat="48.2356" lon="7.09704">
        <ele>592.31</ele>
        <time>2017-10-26T15:13:45Z</time>
      </trkpt>
      <trkpt lat="48.23565" lon="7.09693">
        <ele>591.35</ele>
        <time>2017-10-26T15:13:56Z</time>
      </trkpt>
      <trkpt lat="48.23573" lon="7.09682">
        <ele>590.39</ele>
        <time>2017-10-26T15:14:09Z</time>
      </trkpt>
    </trkseg>
  </trk>
</gpx>